<?xml version="1.0" encoding="utf-8"?>
<gpx xmlns:xsd="http://www.w3.org/2001/XMLSchema" xmlns:xsi="http://www.w3.org/2001/XMLSchema-instance" creator="eT4 META" version="1.1" xsi:schemaLocation="http://www.topografix.com/GPX/1/1 http://www.topografix.com/GPX/1/1/gpx.xsd" xmlns="http://www.topografix.com/GPX/1/1">
  <trk>
    <name>Brauereitour Nord</name>
    <trkseg>
      <trkpt lat="48.602853" lon="11.627465">
        <ele>418.39</ele>
        <time>2022-05-12T00:00:00.0000000+00:00</time>
      </trkpt>
      <trkpt lat="48.60285" lon="11.627469">
        <ele>418.4</ele>
        <time>2022-05-12T00:00:00.1120000+00:00</time>
      </trkpt>
      <trkpt lat="48.602971" lon="11.627341">
        <ele>418.1</ele>
        <time>2022-05-12T00:00:04.2400000+00:00</time>
      </trkpt>
      <trkpt lat="48.602871" lon="11.627117">
        <ele>416.8</ele>
        <time>2022-05-12T00:00:09.2360000+00:00</time>
      </trkpt>
      <trkpt lat="48.602871" lon="11.627117">
        <ele>416.8</ele>
        <time>2022-05-12T00:00:09.2360000+00:00</time>
      </trkpt>
      <trkpt lat="48.602863" lon="11.626977">
        <ele>416.11</ele>
        <time>2022-05-12T00:00:11.8340000+00:00</time>
      </trkpt>
      <trkpt lat="48.602997" lon="11.626643">
        <ele>415.39</ele>
        <time>2022-05-12T00:00:19.0560000+00:00</time>
      </trkpt>
      <trkpt lat="48.603029" lon="11.626533">
        <ele>415.11</ele>
        <time>2022-05-12T00:00:21.2770000+00:00</time>
      </trkpt>
      <trkpt lat="48.603037" lon="11.626444">
        <ele>414.82</ele>
        <time>2022-05-12T00:00:22.9370000+00:00</time>
      </trkpt>
      <trkpt lat="48.603037" lon="11.626444">
        <ele>414.82</ele>
        <time>2022-05-12T00:00:22.9370000+00:00</time>
      </trkpt>
      <trkpt lat="48.603001" lon="11.626338">
        <ele>414.31</ele>
        <time>2022-05-12T00:00:25.1400000+00:00</time>
      </trkpt>
      <trkpt lat="48.602669" lon="11.625669">
        <ele>411.97</ele>
        <time>2022-05-12T00:00:40.6020000+00:00</time>
      </trkpt>
      <trkpt lat="48.602434" lon="11.625085">
        <ele>411.36</ele>
        <time>2022-05-12T00:00:53.2400000+00:00</time>
      </trkpt>
      <trkpt lat="48.60211" lon="11.62437">
        <ele>410.25</ele>
        <time>2022-05-12T00:01:09.2630000+00:00</time>
      </trkpt>
      <trkpt lat="48.601869" lon="11.623898">
        <ele>410.11</ele>
        <time>2022-05-12T00:01:20.2870000+00:00</time>
      </trkpt>
      <trkpt lat="48.601791" lon="11.623705">
        <ele>410.23</ele>
        <time>2022-05-12T00:01:24.4680000+00:00</time>
      </trkpt>
      <trkpt lat="48.601798" lon="11.623447">
        <ele>410.3</ele>
        <time>2022-05-12T00:01:29.2410000+00:00</time>
      </trkpt>
      <trkpt lat="48.602018" lon="11.623082">
        <ele>409.98</ele>
        <time>2022-05-12T00:01:38.3710000+00:00</time>
      </trkpt>
      <trkpt lat="48.602018" lon="11.623082">
        <ele>409.98</ele>
        <time>2022-05-12T00:01:38.3710000+00:00</time>
      </trkpt>
      <trkpt lat="48.602498" lon="11.62237">
        <ele>409.55</ele>
        <time>2022-05-12T00:01:57.1670000+00:00</time>
      </trkpt>
      <trkpt lat="48.602813" lon="11.621924">
        <ele>409.27</ele>
        <time>2022-05-12T00:02:09.2300000+00:00</time>
      </trkpt>
      <trkpt lat="48.603042" lon="11.621705">
        <ele>409.83</ele>
        <time>2022-05-12T00:02:16.8050000+00:00</time>
      </trkpt>
      <trkpt lat="48.603291" lon="11.621555">
        <ele>409.97</ele>
        <time>2022-05-12T00:02:24.2970000+00:00</time>
      </trkpt>
      <trkpt lat="48.603447" lon="11.621319">
        <ele>410.21</ele>
        <time>2022-05-12T00:02:30.4660000+00:00</time>
      </trkpt>
      <trkpt lat="48.603688" lon="11.620879">
        <ele>410.28</ele>
        <time>2022-05-12T00:02:41.0270000+00:00</time>
      </trkpt>
      <trkpt lat="48.604253" lon="11.619592">
        <ele>409.38</ele>
        <time>2022-05-12T00:03:09.5840000+00:00</time>
      </trkpt>
      <trkpt lat="48.604689" lon="11.618746">
        <ele>407.79</ele>
        <time>2022-05-12T00:03:29.4110000+00:00</time>
      </trkpt>
      <trkpt lat="48.604876" lon="11.618477">
        <ele>407.77</ele>
        <time>2022-05-12T00:03:36.6260000+00:00</time>
      </trkpt>
      <trkpt lat="48.605182" lon="11.61817">
        <ele>407.38</ele>
        <time>2022-05-12T00:03:46.8910000+00:00</time>
      </trkpt>
      <trkpt lat="48.605122" lon="11.618012">
        <ele>407.63</ele>
        <time>2022-05-12T00:03:50.2590000+00:00</time>
      </trkpt>
      <trkpt lat="48.605745" lon="11.61719">
        <ele>407.26</ele>
        <time>2022-05-12T00:04:13.3720000+00:00</time>
      </trkpt>
      <trkpt lat="48.606151" lon="11.616475">
        <ele>406.9</ele>
        <time>2022-05-12T00:04:30.7930000+00:00</time>
      </trkpt>
      <trkpt lat="48.606537" lon="11.615677">
        <ele>408.3</ele>
        <time>2022-05-12T00:04:49.0690000+00:00</time>
      </trkpt>
      <trkpt lat="48.606966" lon="11.614641">
        <ele>408.77</ele>
        <time>2022-05-12T00:05:11.6640000+00:00</time>
      </trkpt>
      <trkpt lat="48.60614" lon="11.613191">
        <ele>412.59</ele>
        <time>2022-05-12T00:05:47.0410000+00:00</time>
      </trkpt>
      <trkpt lat="48.605557" lon="11.612126">
        <ele>413.7</ele>
        <time>2022-05-12T00:06:12.5980000+00:00</time>
      </trkpt>
      <trkpt lat="48.605132" lon="11.611301">
        <ele>414.32</ele>
        <time>2022-05-12T00:06:31.9300000+00:00</time>
      </trkpt>
      <trkpt lat="48.604857" lon="11.610266">
        <ele>415.27</ele>
        <time>2022-05-12T00:06:52.5490000+00:00</time>
      </trkpt>
      <trkpt lat="48.604847" lon="11.609921">
        <ele>416.86</ele>
        <time>2022-05-12T00:06:58.9330000+00:00</time>
      </trkpt>
      <trkpt lat="48.604884" lon="11.609398">
        <ele>419.5</ele>
        <time>2022-05-12T00:07:08.6550000+00:00</time>
      </trkpt>
      <trkpt lat="48.605053" lon="11.607772">
        <ele>428.34</ele>
        <time>2022-05-12T00:07:39.0810000+00:00</time>
      </trkpt>
      <trkpt lat="48.605067" lon="11.607514">
        <ele>429.96</ele>
        <time>2022-05-12T00:07:43.8660000+00:00</time>
      </trkpt>
      <trkpt lat="48.605057" lon="11.607263">
        <ele>431.42</ele>
        <time>2022-05-12T00:07:48.5140000+00:00</time>
      </trkpt>
      <trkpt lat="48.604865" lon="11.605575">
        <ele>436.77</ele>
        <time>2022-05-12T00:08:20.1760000+00:00</time>
      </trkpt>
      <trkpt lat="48.604859" lon="11.605086">
        <ele>438.54</ele>
        <time>2022-05-12T00:08:29.2160000+00:00</time>
      </trkpt>
      <trkpt lat="48.604977" lon="11.603313">
        <ele>445.79</ele>
        <time>2022-05-12T00:09:02.1560000+00:00</time>
      </trkpt>
      <trkpt lat="48.605003" lon="11.603212">
        <ele>446.52</ele>
        <time>2022-05-12T00:09:04.1590000+00:00</time>
      </trkpt>
      <trkpt lat="48.605193" lon="11.602983">
        <ele>449.9</ele>
        <time>2022-05-12T00:09:10.9510000+00:00</time>
      </trkpt>
      <trkpt lat="48.605408" lon="11.602436">
        <ele>452.05</ele>
        <time>2022-05-12T00:09:22.7140000+00:00</time>
      </trkpt>
      <trkpt lat="48.605729" lon="11.601763">
        <ele>454.21</ele>
        <time>2022-05-12T00:09:38.0530000+00:00</time>
      </trkpt>
      <trkpt lat="48.606123" lon="11.601031">
        <ele>456.79</ele>
        <time>2022-05-12T00:09:55.5000000+00:00</time>
      </trkpt>
      <trkpt lat="48.606236" lon="11.600566">
        <ele>458.4</ele>
        <time>2022-05-12T00:10:04.6570000+00:00</time>
      </trkpt>
      <trkpt lat="48.606341" lon="11.600525">
        <ele>458.91</ele>
        <time>2022-05-12T00:10:07.6890000+00:00</time>
      </trkpt>
      <trkpt lat="48.606392" lon="11.599664">
        <ele>464.07</ele>
        <time>2022-05-12T00:10:23.6680000+00:00</time>
      </trkpt>
      <trkpt lat="48.606137" lon="11.599526">
        <ele>464.12</ele>
        <time>2022-05-12T00:10:31.2390000+00:00</time>
      </trkpt>
      <trkpt lat="48.605879" lon="11.599271">
        <ele>465.76</ele>
        <time>2022-05-12T00:10:39.8550000+00:00</time>
      </trkpt>
      <trkpt lat="48.605475" lon="11.598659">
        <ele>464.28</ele>
        <time>2022-05-12T00:10:55.8400000+00:00</time>
      </trkpt>
      <trkpt lat="48.605164" lon="11.597837">
        <ele>463.8</ele>
        <time>2022-05-12T00:11:13.3460000+00:00</time>
      </trkpt>
      <trkpt lat="48.605031" lon="11.597207">
        <ele>461.63</ele>
        <time>2022-05-12T00:11:25.5710000+00:00</time>
      </trkpt>
      <trkpt lat="48.604884" lon="11.59683">
        <ele>459.49</ele>
        <time>2022-05-12T00:11:33.6610000+00:00</time>
      </trkpt>
      <trkpt lat="48.604625" lon="11.596483">
        <ele>456.36</ele>
        <time>2022-05-12T00:11:43.3340000+00:00</time>
      </trkpt>
      <trkpt lat="48.60384" lon="11.595608">
        <ele>441</ele>
        <time>2022-05-12T00:12:10.5960000+00:00</time>
      </trkpt>
      <trkpt lat="48.603353" lon="11.59511">
        <ele>433.97</ele>
        <time>2022-05-12T00:12:27.0300000+00:00</time>
      </trkpt>
      <trkpt lat="48.603122" lon="11.594908">
        <ele>432.38</ele>
        <time>2022-05-12T00:12:34.4890000+00:00</time>
      </trkpt>
      <trkpt lat="48.602756" lon="11.594508">
        <ele>428.3</ele>
        <time>2022-05-12T00:12:47.1130000+00:00</time>
      </trkpt>
      <trkpt lat="48.60214" lon="11.593742">
        <ele>430.94</ele>
        <time>2022-05-12T00:13:09.4080000+00:00</time>
      </trkpt>
      <trkpt lat="48.60207" lon="11.593558">
        <ele>431.6</ele>
        <time>2022-05-12T00:13:13.3320000+00:00</time>
      </trkpt>
      <trkpt lat="48.602048" lon="11.593394">
        <ele>431.94</ele>
        <time>2022-05-12T00:13:16.4250000+00:00</time>
      </trkpt>
      <trkpt lat="48.602042" lon="11.593139">
        <ele>432.26</ele>
        <time>2022-05-12T00:13:21.1420000+00:00</time>
      </trkpt>
      <trkpt lat="48.602184" lon="11.592439">
        <ele>430.95</ele>
        <time>2022-05-12T00:13:34.6780000+00:00</time>
      </trkpt>
      <trkpt lat="48.602347" lon="11.59175">
        <ele>429.31</ele>
        <time>2022-05-12T00:13:48.2050000+00:00</time>
      </trkpt>
      <trkpt lat="48.602701" lon="11.58988">
        <ele>427.33</ele>
        <time>2022-05-12T00:14:24.1630000+00:00</time>
      </trkpt>
      <trkpt lat="48.602787" lon="11.589148">
        <ele>427.67</ele>
        <time>2022-05-12T00:14:37.9060000+00:00</time>
      </trkpt>
      <trkpt lat="48.602946" lon="11.587385">
        <ele>427.37</ele>
        <time>2022-05-12T00:15:10.7990000+00:00</time>
      </trkpt>
      <trkpt lat="48.603004" lon="11.586909">
        <ele>427.08</ele>
        <time>2022-05-12T00:15:19.7460000+00:00</time>
      </trkpt>
      <trkpt lat="48.603107" lon="11.586441">
        <ele>427.03</ele>
        <time>2022-05-12T00:15:28.8640000+00:00</time>
      </trkpt>
      <trkpt lat="48.603448" lon="11.584519">
        <ele>424.04</ele>
        <time>2022-05-12T00:16:05.6500000+00:00</time>
      </trkpt>
      <trkpt lat="48.603428" lon="11.584146">
        <ele>423.69</ele>
        <time>2022-05-12T00:16:12.5680000+00:00</time>
      </trkpt>
      <trkpt lat="48.6033" lon="11.583118">
        <ele>423.24</ele>
        <time>2022-05-12T00:16:31.9050000+00:00</time>
      </trkpt>
      <trkpt lat="48.603247" lon="11.582274">
        <ele>421.28</ele>
        <time>2022-05-12T00:16:47.5770000+00:00</time>
      </trkpt>
      <trkpt lat="48.603254" lon="11.582008">
        <ele>420.43</ele>
        <time>2022-05-12T00:16:52.4980000+00:00</time>
      </trkpt>
      <trkpt lat="48.60364" lon="11.579572">
        <ele>408.29</ele>
        <time>2022-05-12T00:17:38.8040000+00:00</time>
      </trkpt>
      <trkpt lat="48.60347" lon="11.579508">
        <ele>408.2</ele>
        <time>2022-05-12T00:17:43.7010000+00:00</time>
      </trkpt>
      <trkpt lat="48.60364" lon="11.579572">
        <ele>408.29</ele>
        <time>2022-05-12T00:17:48.5990000+00:00</time>
      </trkpt>
      <trkpt lat="48.603727" lon="11.579025">
        <ele>406.07</ele>
        <time>2022-05-12T00:17:58.9990000+00:00</time>
      </trkpt>
      <trkpt lat="48.603889" lon="11.578226">
        <ele>404.06</ele>
        <time>2022-05-12T00:18:14.4470000+00:00</time>
      </trkpt>
      <trkpt lat="48.604289" lon="11.577542">
        <ele>403.62</ele>
        <time>2022-05-12T00:18:31.3260000+00:00</time>
      </trkpt>
      <trkpt lat="48.604622" lon="11.576624">
        <ele>402.74</ele>
        <time>2022-05-12T00:18:50.6820000+00:00</time>
      </trkpt>
      <trkpt lat="48.604732" lon="11.574912">
        <ele>402.15</ele>
        <time>2022-05-12T00:19:22.4770000+00:00</time>
      </trkpt>
      <trkpt lat="48.60473" lon="11.574532">
        <ele>402.16</ele>
        <time>2022-05-12T00:19:29.5020000+00:00</time>
      </trkpt>
      <trkpt lat="48.604815" lon="11.574402">
        <ele>401.82</ele>
        <time>2022-05-12T00:19:32.8810000+00:00</time>
      </trkpt>
      <trkpt lat="48.604768" lon="11.574341">
        <ele>401.95</ele>
        <time>2022-05-12T00:19:34.6130000+00:00</time>
      </trkpt>
      <trkpt lat="48.604802" lon="11.573898">
        <ele>401.7</ele>
        <time>2022-05-12T00:19:42.8570000+00:00</time>
      </trkpt>
      <trkpt lat="48.60485" lon="11.573586">
        <ele>401.5</ele>
        <time>2022-05-12T00:19:48.7780000+00:00</time>
      </trkpt>
      <trkpt lat="48.605037" lon="11.573074">
        <ele>401.09</ele>
        <time>2022-05-12T00:19:59.5900000+00:00</time>
      </trkpt>
      <trkpt lat="48.605284" lon="11.572525">
        <ele>400.18</ele>
        <time>2022-05-12T00:20:11.8650000+00:00</time>
      </trkpt>
      <trkpt lat="48.605424" lon="11.572284">
        <ele>399.44</ele>
        <time>2022-05-12T00:20:17.7940000+00:00</time>
      </trkpt>
      <trkpt lat="48.605365" lon="11.572089">
        <ele>399.11</ele>
        <time>2022-05-12T00:20:21.7580000+00:00</time>
      </trkpt>
      <trkpt lat="48.60547" lon="11.572134">
        <ele>399.05</ele>
        <time>2022-05-12T00:20:24.8090000+00:00</time>
      </trkpt>
      <trkpt lat="48.60548" lon="11.572081">
        <ele>398.93</ele>
        <time>2022-05-12T00:20:25.8280000+00:00</time>
      </trkpt>
      <trkpt lat="48.60547" lon="11.572134">
        <ele>399.05</ele>
        <time>2022-05-12T00:20:26.8470000+00:00</time>
      </trkpt>
      <trkpt lat="48.605178" lon="11.571973">
        <ele>398.82</ele>
        <time>2022-05-12T00:20:35.5350000+00:00</time>
      </trkpt>
      <trkpt lat="48.60498" lon="11.571933">
        <ele>398.58</ele>
        <time>2022-05-12T00:20:41.1190000+00:00</time>
      </trkpt>
      <trkpt lat="48.604687" lon="11.571987">
        <ele>398.23</ele>
        <time>2022-05-12T00:20:49.3710000+00:00</time>
      </trkpt>
      <trkpt lat="48.604156" lon="11.572524">
        <ele>399.97</ele>
        <time>2022-05-12T00:21:07.2280000+00:00</time>
      </trkpt>
      <trkpt lat="48.604059" lon="11.572522">
        <ele>400.01</ele>
        <time>2022-05-12T00:21:09.9400000+00:00</time>
      </trkpt>
      <trkpt lat="48.60186" lon="11.57208">
        <ele>400.76</ele>
        <time>2022-05-12T00:22:11.9530000+00:00</time>
      </trkpt>
      <trkpt lat="48.601941" lon="11.570204">
        <ele>397.76</ele>
        <time>2022-05-12T00:22:46.7070000+00:00</time>
      </trkpt>
      <trkpt lat="48.601875" lon="11.570148">
        <ele>397.64</ele>
        <time>2022-05-12T00:22:48.8230000+00:00</time>
      </trkpt>
      <trkpt lat="48.600794" lon="11.569941">
        <ele>396.33</ele>
        <time>2022-05-12T00:23:19.2840000+00:00</time>
      </trkpt>
      <trkpt lat="48.600318" lon="11.569902">
        <ele>395.58</ele>
        <time>2022-05-12T00:23:32.6100000+00:00</time>
      </trkpt>
      <trkpt lat="48.600062" lon="11.569847">
        <ele>396.26</ele>
        <time>2022-05-12T00:23:39.8380000+00:00</time>
      </trkpt>
      <trkpt lat="48.598517" lon="11.569325">
        <ele>398</ele>
        <time>2022-05-12T00:24:24.0930000+00:00</time>
      </trkpt>
      <trkpt lat="48.598023" lon="11.569131">
        <ele>398</ele>
        <time>2022-05-12T00:24:38.3610000+00:00</time>
      </trkpt>
      <trkpt lat="48.597009" lon="11.568477">
        <ele>398.99</ele>
        <time>2022-05-12T00:25:09.1780000+00:00</time>
      </trkpt>
      <trkpt lat="48.596787" lon="11.568359">
        <ele>399</ele>
        <time>2022-05-12T00:25:15.7570000+00:00</time>
      </trkpt>
      <trkpt lat="48.596447" lon="11.568211">
        <ele>399</ele>
        <time>2022-05-12T00:25:25.6470000+00:00</time>
      </trkpt>
      <trkpt lat="48.596143" lon="11.568149">
        <ele>398.97</ele>
        <time>2022-05-12T00:25:34.2230000+00:00</time>
      </trkpt>
      <trkpt lat="48.596057" lon="11.568107">
        <ele>398.86</ele>
        <time>2022-05-12T00:25:36.7490000+00:00</time>
      </trkpt>
      <trkpt lat="48.596007" lon="11.568036">
        <ele>398.8</ele>
        <time>2022-05-12T00:25:38.6670000+00:00</time>
      </trkpt>
      <trkpt lat="48.595973" lon="11.567938">
        <ele>398.76</ele>
        <time>2022-05-12T00:25:40.7130000+00:00</time>
      </trkpt>
      <trkpt lat="48.595103" lon="11.567713">
        <ele>398.46</ele>
        <time>2022-05-12T00:26:05.3870000+00:00</time>
      </trkpt>
      <trkpt lat="48.594131" lon="11.567354">
        <ele>399.61</ele>
        <time>2022-05-12T00:26:33.3580000+00:00</time>
      </trkpt>
      <trkpt lat="48.594025" lon="11.567373">
        <ele>399.59</ele>
        <time>2022-05-12T00:26:36.3420000+00:00</time>
      </trkpt>
      <trkpt lat="48.593971" lon="11.567413">
        <ele>399.54</ele>
        <time>2022-05-12T00:26:38.0230000+00:00</time>
      </trkpt>
      <trkpt lat="48.593913" lon="11.567543">
        <ele>399.38</ele>
        <time>2022-05-12T00:26:40.9220000+00:00</time>
      </trkpt>
      <trkpt lat="48.593701" lon="11.568398">
        <ele>401.52</ele>
        <time>2022-05-12T00:26:57.8050000+00:00</time>
      </trkpt>
      <trkpt lat="48.593656" lon="11.568746">
        <ele>403.33</ele>
        <time>2022-05-12T00:27:04.3610000+00:00</time>
      </trkpt>
      <trkpt lat="48.593617" lon="11.568868">
        <ele>404.08</ele>
        <time>2022-05-12T00:27:06.8660000+00:00</time>
      </trkpt>
      <trkpt lat="48.593542" lon="11.568936">
        <ele>404.7</ele>
        <time>2022-05-12T00:27:09.3110000+00:00</time>
      </trkpt>
      <trkpt lat="48.593489" lon="11.568925">
        <ele>404.87</ele>
        <time>2022-05-12T00:27:10.8060000+00:00</time>
      </trkpt>
      <trkpt lat="48.59302" lon="11.568634">
        <ele>405.79</ele>
        <time>2022-05-12T00:27:24.9780000+00:00</time>
      </trkpt>
      <trkpt lat="48.592907" lon="11.568591">
        <ele>406.07</ele>
        <time>2022-05-12T00:27:28.2360000+00:00</time>
      </trkpt>
      <trkpt lat="48.59257" lon="11.568697">
        <ele>406.36</ele>
        <time>2022-05-12T00:27:37.8580000+00:00</time>
      </trkpt>
      <trkpt lat="48.592437" lon="11.568715">
        <ele>406.1</ele>
        <time>2022-05-12T00:27:41.5910000+00:00</time>
      </trkpt>
      <trkpt lat="48.592145" lon="11.5686">
        <ele>405.15</ele>
        <time>2022-05-12T00:27:50.0260000+00:00</time>
      </trkpt>
      <trkpt lat="48.590674" lon="11.567579">
        <ele>409.26</ele>
        <time>2022-05-12T00:28:35.2740000+00:00</time>
      </trkpt>
      <trkpt lat="48.590291" lon="11.567268">
        <ele>409.94</ele>
        <time>2022-05-12T00:28:47.4270000+00:00</time>
      </trkpt>
      <trkpt lat="48.589935" lon="11.566918">
        <ele>408.96</ele>
        <time>2022-05-12T00:28:59.2990000+00:00</time>
      </trkpt>
      <trkpt lat="48.589927" lon="11.56693">
        <ele>409.03</ele>
        <time>2022-05-12T00:28:59.6130000+00:00</time>
      </trkpt>
      <trkpt lat="48.589935" lon="11.566918">
        <ele>408.96</ele>
        <time>2022-05-12T00:28:59.9280000+00:00</time>
      </trkpt>
      <trkpt lat="48.589814" lon="11.5668">
        <ele>408.61</ele>
        <time>2022-05-12T00:29:03.9540000+00:00</time>
      </trkpt>
      <trkpt lat="48.590077" lon="11.566746">
        <ele>407.84</ele>
        <time>2022-05-12T00:29:11.3730000+00:00</time>
      </trkpt>
      <trkpt lat="48.590487" lon="11.566835">
        <ele>407.4</ele>
        <time>2022-05-12T00:29:22.9520000+00:00</time>
      </trkpt>
      <trkpt lat="48.590583" lon="11.566795">
        <ele>406.9</ele>
        <time>2022-05-12T00:29:25.7360000+00:00</time>
      </trkpt>
      <trkpt lat="48.59071" lon="11.566663">
        <ele>405.87</ele>
        <time>2022-05-12T00:29:30.0440000+00:00</time>
      </trkpt>
      <trkpt lat="48.591986" lon="11.563244">
        <ele>399</ele>
        <time>2022-05-12T00:30:42.6310000+00:00</time>
      </trkpt>
      <trkpt lat="48.592115" lon="11.562989">
        <ele>399.13</ele>
        <time>2022-05-12T00:30:48.5670000+00:00</time>
      </trkpt>
      <trkpt lat="48.592254" lon="11.562819">
        <ele>399.44</ele>
        <time>2022-05-12T00:30:53.5650000+00:00</time>
      </trkpt>
      <trkpt lat="48.59248" lon="11.562621">
        <ele>400.28</ele>
        <time>2022-05-12T00:31:00.8670000+00:00</time>
      </trkpt>
      <trkpt lat="48.592761" lon="11.562467">
        <ele>400.91</ele>
        <time>2022-05-12T00:31:09.2220000+00:00</time>
      </trkpt>
      <trkpt lat="48.592945" lon="11.562309">
        <ele>401.21</ele>
        <time>2022-05-12T00:31:15.1370000+00:00</time>
      </trkpt>
      <trkpt lat="48.593426" lon="11.56159">
        <ele>401.14</ele>
        <time>2022-05-12T00:31:34.0460000+00:00</time>
      </trkpt>
      <trkpt lat="48.594207" lon="11.56028">
        <ele>400.39</ele>
        <time>2022-05-12T00:32:06.6550000+00:00</time>
      </trkpt>
      <trkpt lat="48.594763" lon="11.559243">
        <ele>401.42</ele>
        <time>2022-05-12T00:32:31.3360000+00:00</time>
      </trkpt>
      <trkpt lat="48.595311" lon="11.55832">
        <ele>403.84</ele>
        <time>2022-05-12T00:32:54.2690000+00:00</time>
      </trkpt>
      <trkpt lat="48.595334" lon="11.558243">
        <ele>404.09</ele>
        <time>2022-05-12T00:32:55.8310000+00:00</time>
      </trkpt>
      <trkpt lat="48.596009" lon="11.558656">
        <ele>403.2</ele>
        <time>2022-05-12T00:33:16.1870000+00:00</time>
      </trkpt>
      <trkpt lat="48.596323" lon="11.558801">
        <ele>403.57</ele>
        <time>2022-05-12T00:33:25.3650000+00:00</time>
      </trkpt>
      <trkpt lat="48.597131" lon="11.559071">
        <ele>405.82</ele>
        <time>2022-05-12T00:33:48.4970000+00:00</time>
      </trkpt>
      <trkpt lat="48.597392" lon="11.559224">
        <ele>405.58</ele>
        <time>2022-05-12T00:33:56.3230000+00:00</time>
      </trkpt>
      <trkpt lat="48.597515" lon="11.559329">
        <ele>405.35</ele>
        <time>2022-05-12T00:34:00.2710000+00:00</time>
      </trkpt>
      <trkpt lat="48.597625" lon="11.559487">
        <ele>404.92</ele>
        <time>2022-05-12T00:34:04.5130000+00:00</time>
      </trkpt>
      <trkpt lat="48.597874" lon="11.559996">
        <ele>403.31</ele>
        <time>2022-05-12T00:34:16.2170000+00:00</time>
      </trkpt>
      <trkpt lat="48.598015" lon="11.560184">
        <ele>402.61</ele>
        <time>2022-05-12T00:34:21.4730000+00:00</time>
      </trkpt>
      <trkpt lat="48.59824" lon="11.560354">
        <ele>402.04</ele>
        <time>2022-05-12T00:34:28.5040000+00:00</time>
      </trkpt>
      <trkpt lat="48.598595" lon="11.560418">
        <ele>401.94</ele>
        <time>2022-05-12T00:34:38.4980000+00:00</time>
      </trkpt>
      <trkpt lat="48.598905" lon="11.560401">
        <ele>401.69</ele>
        <time>2022-05-12T00:34:47.1700000+00:00</time>
      </trkpt>
      <trkpt lat="48.59981" lon="11.560147">
        <ele>401.43</ele>
        <time>2022-05-12T00:35:12.9010000+00:00</time>
      </trkpt>
      <trkpt lat="48.600274" lon="11.560179">
        <ele>401.24</ele>
        <time>2022-05-12T00:35:25.8860000+00:00</time>
      </trkpt>
      <trkpt lat="48.600574" lon="11.560268">
        <ele>402.67</ele>
        <time>2022-05-12T00:35:34.4320000+00:00</time>
      </trkpt>
      <trkpt lat="48.600755" lon="11.560367">
        <ele>403.53</ele>
        <time>2022-05-12T00:35:39.8130000+00:00</time>
      </trkpt>
      <trkpt lat="48.601171" lon="11.56067">
        <ele>404.57</ele>
        <time>2022-05-12T00:35:52.7210000+00:00</time>
      </trkpt>
      <trkpt lat="48.601158" lon="11.560063">
        <ele>407.4</ele>
        <time>2022-05-12T00:36:03.9480000+00:00</time>
      </trkpt>
      <trkpt lat="48.601223" lon="11.560063">
        <ele>407.78</ele>
        <time>2022-05-12T00:36:05.7650000+00:00</time>
      </trkpt>
      <trkpt lat="48.601158" lon="11.560063">
        <ele>407.4</ele>
        <time>2022-05-12T00:36:07.5830000+00:00</time>
      </trkpt>
      <trkpt lat="48.601152" lon="11.559737">
        <ele>408.9</ele>
        <time>2022-05-12T00:36:13.6120000+00:00</time>
      </trkpt>
      <trkpt lat="48.601168" lon="11.558961">
        <ele>410.02</ele>
        <time>2022-05-12T00:36:27.9640000+00:00</time>
      </trkpt>
      <trkpt lat="48.601269" lon="11.557039">
        <ele>410.62</ele>
        <time>2022-05-12T00:37:03.6070000+00:00</time>
      </trkpt>
      <trkpt lat="48.601263" lon="11.55639">
        <ele>410.25</ele>
        <time>2022-05-12T00:37:15.6060000+00:00</time>
      </trkpt>
      <trkpt lat="48.601183" lon="11.554489">
        <ele>415.09</ele>
        <time>2022-05-12T00:37:50.8200000+00:00</time>
      </trkpt>
      <trkpt lat="48.601115" lon="11.553478">
        <ele>412.63</ele>
        <time>2022-05-12T00:38:09.6060000+00:00</time>
      </trkpt>
      <trkpt lat="48.600994" lon="11.552853">
        <ele>411.8</ele>
        <time>2022-05-12T00:38:21.6450000+00:00</time>
      </trkpt>
      <trkpt lat="48.60093" lon="11.552279">
        <ele>412.32</ele>
        <time>2022-05-12T00:38:32.4060000+00:00</time>
      </trkpt>
      <trkpt lat="48.600846" lon="11.550965">
        <ele>412.86</ele>
        <time>2022-05-12T00:38:56.8110000+00:00</time>
      </trkpt>
      <trkpt lat="48.600816" lon="11.550094">
        <ele>412.28</ele>
        <time>2022-05-12T00:39:12.9340000+00:00</time>
      </trkpt>
      <trkpt lat="48.600745" lon="11.549285">
        <ele>412.4</ele>
        <time>2022-05-12T00:39:28.0210000+00:00</time>
      </trkpt>
      <trkpt lat="48.600742" lon="11.548485">
        <ele>414.84</ele>
        <time>2022-05-12T00:39:42.8110000+00:00</time>
      </trkpt>
      <trkpt lat="48.600844" lon="11.547563">
        <ele>415.84</ele>
        <time>2022-05-12T00:40:00.0920000+00:00</time>
      </trkpt>
      <trkpt lat="48.600854" lon="11.54602">
        <ele>416.82</ele>
        <time>2022-05-12T00:40:28.6180000+00:00</time>
      </trkpt>
      <trkpt lat="48.600832" lon="11.54574">
        <ele>417.69</ele>
        <time>2022-05-12T00:40:33.8310000+00:00</time>
      </trkpt>
      <trkpt lat="48.600765" lon="11.545513">
        <ele>418.11</ele>
        <time>2022-05-12T00:40:38.4270000+00:00</time>
      </trkpt>
      <trkpt lat="48.60057" lon="11.545259">
        <ele>417.48</ele>
        <time>2022-05-12T00:40:45.6210000+00:00</time>
      </trkpt>
      <trkpt lat="48.600373" lon="11.545084">
        <ele>416.56</ele>
        <time>2022-05-12T00:40:52.0080000+00:00</time>
      </trkpt>
      <trkpt lat="48.600197" lon="11.544996">
        <ele>416.22</ele>
        <time>2022-05-12T00:40:57.1910000+00:00</time>
      </trkpt>
      <trkpt lat="48.599862" lon="11.544032">
        <ele>415.52</ele>
        <time>2022-05-12T00:41:17.3230000+00:00</time>
      </trkpt>
      <trkpt lat="48.599693" lon="11.543211">
        <ele>415.72</ele>
        <time>2022-05-12T00:41:33.2190000+00:00</time>
      </trkpt>
      <trkpt lat="48.599577" lon="11.541516">
        <ele>414.13</ele>
        <time>2022-05-12T00:42:04.7220000+00:00</time>
      </trkpt>
      <trkpt lat="48.59953" lon="11.537947">
        <ele>413.28</ele>
        <time>2022-05-12T00:43:10.7150000+00:00</time>
      </trkpt>
      <trkpt lat="48.59954" lon="11.537172">
        <ele>412.48</ele>
        <time>2022-05-12T00:43:25.0450000+00:00</time>
      </trkpt>
      <trkpt lat="48.599701" lon="11.536419">
        <ele>413.69</ele>
        <time>2022-05-12T00:43:39.6750000+00:00</time>
      </trkpt>
      <trkpt lat="48.599995" lon="11.535449">
        <ele>417.46</ele>
        <time>2022-05-12T00:43:59.4020000+00:00</time>
      </trkpt>
      <trkpt lat="48.600187" lon="11.534585">
        <ele>417.87</ele>
        <time>2022-05-12T00:44:16.2520000+00:00</time>
      </trkpt>
      <trkpt lat="48.600535" lon="11.532226">
        <ele>419.7</ele>
        <time>2022-05-12T00:45:00.9340000+00:00</time>
      </trkpt>
      <trkpt lat="48.600635" lon="11.531639">
        <ele>420.46</ele>
        <time>2022-05-12T00:45:12.1400000+00:00</time>
      </trkpt>
      <trkpt lat="48.600848" lon="11.530705">
        <ele>422.01</ele>
        <time>2022-05-12T00:45:30.4040000+00:00</time>
      </trkpt>
      <trkpt lat="48.600923" lon="11.530597">
        <ele>422.09</ele>
        <time>2022-05-12T00:45:33.3000000+00:00</time>
      </trkpt>
      <trkpt lat="48.601039" lon="11.530596">
        <ele>421.81</ele>
        <time>2022-05-12T00:45:36.5420000+00:00</time>
      </trkpt>
      <trkpt lat="48.601372" lon="11.530725">
        <ele>423.53</ele>
        <time>2022-05-12T00:45:46.1520000+00:00</time>
      </trkpt>
      <trkpt lat="48.601457" lon="11.530712">
        <ele>424.49</ele>
        <time>2022-05-12T00:45:48.5400000+00:00</time>
      </trkpt>
      <trkpt lat="48.601536" lon="11.530646">
        <ele>425.32</ele>
        <time>2022-05-12T00:45:51.0630000+00:00</time>
      </trkpt>
      <trkpt lat="48.601605" lon="11.5305">
        <ele>425.85</ele>
        <time>2022-05-12T00:45:54.3810000+00:00</time>
      </trkpt>
      <trkpt lat="48.601922" lon="11.52909">
        <ele>424.59</ele>
        <time>2022-05-12T00:46:21.9120000+00:00</time>
      </trkpt>
      <trkpt lat="48.602461" lon="11.527678">
        <ele>427.17</ele>
        <time>2022-05-12T00:46:52.0510000+00:00</time>
      </trkpt>
      <trkpt lat="48.602607" lon="11.527059">
        <ele>425.45</ele>
        <time>2022-05-12T00:47:04.2000000+00:00</time>
      </trkpt>
      <trkpt lat="48.602574" lon="11.52616">
        <ele>422.08</ele>
        <time>2022-05-12T00:47:20.8440000+00:00</time>
      </trkpt>
      <trkpt lat="48.602693" lon="11.525253">
        <ele>422.3</ele>
        <time>2022-05-12T00:47:37.9380000+00:00</time>
      </trkpt>
      <trkpt lat="48.602775" lon="11.52438">
        <ele>420.71</ele>
        <time>2022-05-12T00:47:54.2380000+00:00</time>
      </trkpt>
      <trkpt lat="48.602794" lon="11.523914">
        <ele>421.03</ele>
        <time>2022-05-12T00:48:02.8690000+00:00</time>
      </trkpt>
      <trkpt lat="48.602777" lon="11.523591">
        <ele>421.63</ele>
        <time>2022-05-12T00:48:08.8580000+00:00</time>
      </trkpt>
      <trkpt lat="48.602438" lon="11.522187">
        <ele>427.41</ele>
        <time>2022-05-12T00:48:36.4890000+00:00</time>
      </trkpt>
      <trkpt lat="48.602434" lon="11.521165">
        <ele>432.68</ele>
        <time>2022-05-12T00:48:55.3820000+00:00</time>
      </trkpt>
      <trkpt lat="48.602399" lon="11.520682">
        <ele>434.16</ele>
        <time>2022-05-12T00:49:04.3640000+00:00</time>
      </trkpt>
      <trkpt lat="48.602253" lon="11.520136">
        <ele>435.39</ele>
        <time>2022-05-12T00:49:15.2510000+00:00</time>
      </trkpt>
      <trkpt lat="48.602048" lon="11.51954">
        <ele>435.27</ele>
        <time>2022-05-12T00:49:27.6700000+00:00</time>
      </trkpt>
      <trkpt lat="48.601793" lon="11.518554">
        <ele>436.57</ele>
        <time>2022-05-12T00:49:47.2420000+00:00</time>
      </trkpt>
      <trkpt lat="48.601606" lon="11.517699">
        <ele>438.04</ele>
        <time>2022-05-12T00:50:03.8900000+00:00</time>
      </trkpt>
      <trkpt lat="48.601559" lon="11.517265">
        <ele>438.92</ele>
        <time>2022-05-12T00:50:12.0200000+00:00</time>
      </trkpt>
      <trkpt lat="48.601566" lon="11.516878">
        <ele>439.28</ele>
        <time>2022-05-12T00:50:19.1770000+00:00</time>
      </trkpt>
      <trkpt lat="48.601665" lon="11.516423">
        <ele>439.84</ele>
        <time>2022-05-12T00:50:28.0320000+00:00</time>
      </trkpt>
      <trkpt lat="48.602156" lon="11.514903">
        <ele>442.33</ele>
        <time>2022-05-12T00:50:59.3040000+00:00</time>
      </trkpt>
      <trkpt lat="48.603112" lon="11.513859">
        <ele>451.54</ele>
        <time>2022-05-12T00:51:32.2690000+00:00</time>
      </trkpt>
      <trkpt lat="48.603635" lon="11.513178">
        <ele>456.06</ele>
        <time>2022-05-12T00:51:51.5620000+00:00</time>
      </trkpt>
      <trkpt lat="48.603824" lon="11.512879">
        <ele>456.79</ele>
        <time>2022-05-12T00:51:59.2080000+00:00</time>
      </trkpt>
      <trkpt lat="48.604051" lon="11.512407">
        <ele>455.7</ele>
        <time>2022-05-12T00:52:09.9970000+00:00</time>
      </trkpt>
      <trkpt lat="48.604177" lon="11.512067">
        <ele>454.51</ele>
        <time>2022-05-12T00:52:17.2020000+00:00</time>
      </trkpt>
      <trkpt lat="48.604207" lon="11.511928">
        <ele>453.88</ele>
        <time>2022-05-12T00:52:19.9050000+00:00</time>
      </trkpt>
      <trkpt lat="48.604229" lon="11.510888">
        <ele>450.5</ele>
        <time>2022-05-12T00:52:39.1390000+00:00</time>
      </trkpt>
      <trkpt lat="48.604209" lon="11.510623">
        <ele>450.22</ele>
        <time>2022-05-12T00:52:44.0700000+00:00</time>
      </trkpt>
      <trkpt lat="48.604151" lon="11.510309">
        <ele>450.63</ele>
        <time>2022-05-12T00:52:50.0960000+00:00</time>
      </trkpt>
      <trkpt lat="48.604012" lon="11.509726">
        <ele>452.74</ele>
        <time>2022-05-12T00:53:01.5520000+00:00</time>
      </trkpt>
      <trkpt lat="48.603994" lon="11.509525">
        <ele>453.16</ele>
        <time>2022-05-12T00:53:05.3020000+00:00</time>
      </trkpt>
      <trkpt lat="48.604009" lon="11.509303">
        <ele>453.59</ele>
        <time>2022-05-12T00:53:09.4270000+00:00</time>
      </trkpt>
      <trkpt lat="48.604692" lon="11.505105">
        <ele>468.53</ele>
        <time>2022-05-12T00:54:29.3430000+00:00</time>
      </trkpt>
      <trkpt lat="48.604801" lon="11.504657">
        <ele>465.53</ele>
        <time>2022-05-12T00:54:38.1670000+00:00</time>
      </trkpt>
      <trkpt lat="48.605258" lon="11.503218">
        <ele>468.77</ele>
        <time>2022-05-12T00:55:07.6760000+00:00</time>
      </trkpt>
      <trkpt lat="48.605427" lon="11.502911">
        <ele>470.96</ele>
        <time>2022-05-12T00:55:15.0600000+00:00</time>
      </trkpt>
      <trkpt lat="48.605603" lon="11.502709">
        <ele>473.46</ele>
        <time>2022-05-12T00:55:21.2360000+00:00</time>
      </trkpt>
      <trkpt lat="48.605852" lon="11.502361">
        <ele>476.85</ele>
        <time>2022-05-12T00:55:30.7140000+00:00</time>
      </trkpt>
      <trkpt lat="48.60599" lon="11.502061">
        <ele>478.83</ele>
        <time>2022-05-12T00:55:37.4690000+00:00</time>
      </trkpt>
      <trkpt lat="48.606127" lon="11.501611">
        <ele>480.95</ele>
        <time>2022-05-12T00:55:46.6270000+00:00</time>
      </trkpt>
      <trkpt lat="48.606303" lon="11.501162">
        <ele>480.57</ele>
        <time>2022-05-12T00:55:56.2750000+00:00</time>
      </trkpt>
      <trkpt lat="48.606938" lon="11.500211">
        <ele>472.03</ele>
        <time>2022-05-12T00:56:21.2580000+00:00</time>
      </trkpt>
      <trkpt lat="48.607403" lon="11.499605">
        <ele>467.06</ele>
        <time>2022-05-12T00:56:38.4170000+00:00</time>
      </trkpt>
      <trkpt lat="48.607603" lon="11.499403">
        <ele>465.29</ele>
        <time>2022-05-12T00:56:45.1400000+00:00</time>
      </trkpt>
      <trkpt lat="48.608511" lon="11.499437">
        <ele>468.58</ele>
        <time>2022-05-12T00:57:10.5310000+00:00</time>
      </trkpt>
      <trkpt lat="48.608802" lon="11.499369">
        <ele>470.47</ele>
        <time>2022-05-12T00:57:18.7620000+00:00</time>
      </trkpt>
      <trkpt lat="48.608628" lon="11.498875">
        <ele>469.85</ele>
        <time>2022-05-12T00:57:29.1080000+00:00</time>
      </trkpt>
      <trkpt lat="48.60854" lon="11.498274">
        <ele>472.03</ele>
        <time>2022-05-12T00:57:40.4860000+00:00</time>
      </trkpt>
      <trkpt lat="48.60856" lon="11.497851">
        <ele>474.02</ele>
        <time>2022-05-12T00:57:48.3250000+00:00</time>
      </trkpt>
      <trkpt lat="48.608765" lon="11.497232">
        <ele>475.44</ele>
        <time>2022-05-12T00:58:01.1210000+00:00</time>
      </trkpt>
      <trkpt lat="48.609215" lon="11.495287">
        <ele>471.57</ele>
        <time>2022-05-12T00:58:39.2090000+00:00</time>
      </trkpt>
      <trkpt lat="48.609558" lon="11.493959">
        <ele>468.41</ele>
        <time>2022-05-12T00:59:05.5610000+00:00</time>
      </trkpt>
      <trkpt lat="48.609698" lon="11.492253">
        <ele>462.35</ele>
        <time>2022-05-12T00:59:37.3360000+00:00</time>
      </trkpt>
      <trkpt lat="48.609288" lon="11.489693">
        <ele>460.66</ele>
        <time>2022-05-12T01:00:26.0220000+00:00</time>
      </trkpt>
      <trkpt lat="48.609398" lon="11.488572">
        <ele>458.37</ele>
        <time>2022-05-12T01:00:46.9690000+00:00</time>
      </trkpt>
      <trkpt lat="48.609879" lon="11.486744">
        <ele>451.94</ele>
        <time>2022-05-12T01:01:23.3340000+00:00</time>
      </trkpt>
      <trkpt lat="48.610419" lon="11.482617">
        <ele>446.01</ele>
        <time>2022-05-12T01:02:41.0930000+00:00</time>
      </trkpt>
      <trkpt lat="48.610886" lon="11.480878">
        <ele>437.27</ele>
        <time>2022-05-12T01:03:15.7850000+00:00</time>
      </trkpt>
      <trkpt lat="48.611429" lon="11.47901">
        <ele>432.65</ele>
        <time>2022-05-12T01:03:53.5010000+00:00</time>
      </trkpt>
      <trkpt lat="48.612055" lon="11.477571">
        <ele>433.53</ele>
        <time>2022-05-12T01:04:25.3380000+00:00</time>
      </trkpt>
      <trkpt lat="48.612482" lon="11.476487">
        <ele>430.8</ele>
        <time>2022-05-12T01:04:48.6590000+00:00</time>
      </trkpt>
      <trkpt lat="48.612792" lon="11.475458">
        <ele>431.02</ele>
        <time>2022-05-12T01:05:09.5590000+00:00</time>
      </trkpt>
      <trkpt lat="48.613426" lon="11.473768">
        <ele>428.27</ele>
        <time>2022-05-12T01:05:45.4720000+00:00</time>
      </trkpt>
      <trkpt lat="48.613506" lon="11.473266">
        <ele>426.96</ele>
        <time>2022-05-12T01:05:55.0160000+00:00</time>
      </trkpt>
      <trkpt lat="48.613534" lon="11.472937">
        <ele>426.14</ele>
        <time>2022-05-12T01:06:01.1460000+00:00</time>
      </trkpt>
      <trkpt lat="48.613235" lon="11.471589">
        <ele>425.29</ele>
        <time>2022-05-12T01:06:27.4250000+00:00</time>
      </trkpt>
      <trkpt lat="48.613041" lon="11.470815">
        <ele>424.05</ele>
        <time>2022-05-12T01:06:42.7230000+00:00</time>
      </trkpt>
      <trkpt lat="48.612916" lon="11.470238">
        <ele>422.49</ele>
        <time>2022-05-12T01:06:53.9460000+00:00</time>
      </trkpt>
      <trkpt lat="48.61269" lon="11.469527">
        <ele>420.42</ele>
        <time>2022-05-12T01:07:08.5260000+00:00</time>
      </trkpt>
      <trkpt lat="48.612436" lon="11.468939">
        <ele>416.97</ele>
        <time>2022-05-12T01:07:21.5080000+00:00</time>
      </trkpt>
      <trkpt lat="48.612308" lon="11.468574">
        <ele>414.81</ele>
        <time>2022-05-12T01:07:29.1440000+00:00</time>
      </trkpt>
      <trkpt lat="48.61224" lon="11.468149">
        <ele>413.3</ele>
        <time>2022-05-12T01:07:37.2260000+00:00</time>
      </trkpt>
      <trkpt lat="48.612273" lon="11.467739">
        <ele>412.63</ele>
        <time>2022-05-12T01:07:44.8600000+00:00</time>
      </trkpt>
      <trkpt lat="48.6123" lon="11.467587">
        <ele>412.54</ele>
        <time>2022-05-12T01:07:47.7690000+00:00</time>
      </trkpt>
      <trkpt lat="48.612414" lon="11.467168">
        <ele>412.67</ele>
        <time>2022-05-12T01:07:56.1430000+00:00</time>
      </trkpt>
      <trkpt lat="48.612549" lon="11.466727">
        <ele>410.77</ele>
        <time>2022-05-12T01:08:05.1250000+00:00</time>
      </trkpt>
      <trkpt lat="48.612646" lon="11.466468">
        <ele>409.16</ele>
        <time>2022-05-12T01:08:10.6260000+00:00</time>
      </trkpt>
      <trkpt lat="48.612904" lon="11.466116">
        <ele>407.96</ele>
        <time>2022-05-12T01:08:20.3390000+00:00</time>
      </trkpt>
      <trkpt lat="48.613045" lon="11.465857">
        <ele>407.81</ele>
        <time>2022-05-12T01:08:26.5400000+00:00</time>
      </trkpt>
      <trkpt lat="48.613709" lon="11.464361">
        <ele>405.95</ele>
        <time>2022-05-12T01:08:59.8420000+00:00</time>
      </trkpt>
      <trkpt lat="48.614047" lon="11.463769">
        <ele>404.54</ele>
        <time>2022-05-12T01:09:14.2990000+00:00</time>
      </trkpt>
      <trkpt lat="48.614429" lon="11.463186">
        <ele>403.51</ele>
        <time>2022-05-12T01:09:29.4690000+00:00</time>
      </trkpt>
      <trkpt lat="48.614642" lon="11.462698">
        <ele>403.25</ele>
        <time>2022-05-12T01:09:40.2760000+00:00</time>
      </trkpt>
      <trkpt lat="48.614871" lon="11.46211">
        <ele>403.16</ele>
        <time>2022-05-12T01:09:52.8890000+00:00</time>
      </trkpt>
      <trkpt lat="48.614893" lon="11.461907">
        <ele>402.93</ele>
        <time>2022-05-12T01:09:56.6910000+00:00</time>
      </trkpt>
      <trkpt lat="48.614879" lon="11.461751">
        <ele>402.92</ele>
        <time>2022-05-12T01:09:59.6000000+00:00</time>
      </trkpt>
      <trkpt lat="48.615026" lon="11.461617">
        <ele>402.03</ele>
        <time>2022-05-12T01:10:04.3980000+00:00</time>
      </trkpt>
      <trkpt lat="48.615238" lon="11.461337">
        <ele>400.56</ele>
        <time>2022-05-12T01:10:12.2660000+00:00</time>
      </trkpt>
      <trkpt lat="48.615241" lon="11.461345">
        <ele>400.55</ele>
        <time>2022-05-12T01:10:12.4360000+00:00</time>
      </trkpt>
      <trkpt lat="48.615238" lon="11.461337">
        <ele>400.56</ele>
        <time>2022-05-12T01:10:12.6070000+00:00</time>
      </trkpt>
      <trkpt lat="48.616018" lon="11.46036">
        <ele>398.34</ele>
        <time>2022-05-12T01:10:40.9170000+00:00</time>
      </trkpt>
      <trkpt lat="48.616255" lon="11.460573">
        <ele>398.37</ele>
        <time>2022-05-12T01:10:48.6240000+00:00</time>
      </trkpt>
      <trkpt lat="48.616571" lon="11.460817">
        <ele>399.22</ele>
        <time>2022-05-12T01:10:58.5420000+00:00</time>
      </trkpt>
      <trkpt lat="48.616745" lon="11.46088">
        <ele>399.57</ele>
        <time>2022-05-12T01:11:03.5430000+00:00</time>
      </trkpt>
      <trkpt lat="48.617217" lon="11.4609">
        <ele>399.19</ele>
        <time>2022-05-12T01:11:16.7430000+00:00</time>
      </trkpt>
      <trkpt lat="48.617281" lon="11.460943">
        <ele>399</ele>
        <time>2022-05-12T01:11:18.7010000+00:00</time>
      </trkpt>
      <trkpt lat="48.617414" lon="11.461123">
        <ele>398.77</ele>
        <time>2022-05-12T01:11:23.6900000+00:00</time>
      </trkpt>
      <trkpt lat="48.617486" lon="11.461714">
        <ele>399.63</ele>
        <time>2022-05-12T01:11:34.7960000+00:00</time>
      </trkpt>
      <trkpt lat="48.617605" lon="11.461624">
        <ele>399.23</ele>
        <time>2022-05-12T01:11:38.5150000+00:00</time>
      </trkpt>
      <trkpt lat="48.617926" lon="11.461375">
        <ele>397.82</ele>
        <time>2022-05-12T01:11:48.5990000+00:00</time>
      </trkpt>
      <trkpt lat="48.618176" lon="11.461078">
        <ele>396.43</ele>
        <time>2022-05-12T01:11:57.4860000+00:00</time>
      </trkpt>
      <trkpt lat="48.618756" lon="11.460266">
        <ele>394.68</ele>
        <time>2022-05-12T01:12:19.5780000+00:00</time>
      </trkpt>
      <trkpt lat="48.619605" lon="11.45903">
        <ele>392.5</ele>
        <time>2022-05-12T01:12:52.5170000+00:00</time>
      </trkpt>
      <trkpt lat="48.620172" lon="11.458246">
        <ele>392</ele>
        <time>2022-05-12T01:13:13.9910000+00:00</time>
      </trkpt>
      <trkpt lat="48.626902" lon="11.452196">
        <ele>383.18</ele>
        <time>2022-05-12T01:16:52.8370000+00:00</time>
      </trkpt>
      <trkpt lat="48.627051" lon="11.452196">
        <ele>383</ele>
        <time>2022-05-12T01:16:57.0020000+00:00</time>
      </trkpt>
      <trkpt lat="48.628129" lon="11.453827">
        <ele>383</ele>
        <time>2022-05-12T01:17:39.6200000+00:00</time>
      </trkpt>
      <trkpt lat="48.628866" lon="11.454814">
        <ele>382.79</ele>
        <time>2022-05-12T01:18:07.1340000+00:00</time>
      </trkpt>
      <trkpt lat="48.629375" lon="11.455362">
        <ele>382.9</ele>
        <time>2022-05-12T01:18:24.5980000+00:00</time>
      </trkpt>
      <trkpt lat="48.629165" lon="11.455823">
        <ele>382.56</ele>
        <time>2022-05-12T01:18:34.9420000+00:00</time>
      </trkpt>
      <trkpt lat="48.629375" lon="11.455362">
        <ele>382.9</ele>
        <time>2022-05-12T01:18:45.2870000+00:00</time>
      </trkpt>
      <trkpt lat="48.629818" lon="11.455839">
        <ele>382.32</ele>
        <time>2022-05-12T01:19:00.4870000+00:00</time>
      </trkpt>
      <trkpt lat="48.631278" lon="11.454533">
        <ele>381.38</ele>
        <time>2022-05-12T01:19:47.9000000+00:00</time>
      </trkpt>
      <trkpt lat="48.631519" lon="11.453997">
        <ele>381.64</ele>
        <time>2022-05-12T01:19:59.8770000+00:00</time>
      </trkpt>
      <trkpt lat="48.632356" lon="11.452924">
        <ele>381</ele>
        <time>2022-05-12T01:20:30.5440000+00:00</time>
      </trkpt>
      <trkpt lat="48.63323" lon="11.45173">
        <ele>382.75</ele>
        <time>2022-05-12T01:21:03.4620000+00:00</time>
      </trkpt>
      <trkpt lat="48.633225" lon="11.451731">
        <ele>382.72</ele>
        <time>2022-05-12T01:21:03.6030000+00:00</time>
      </trkpt>
      <trkpt lat="48.63323" lon="11.45173">
        <ele>382.75</ele>
        <time>2022-05-12T01:21:03.7440000+00:00</time>
      </trkpt>
      <trkpt lat="48.633622" lon="11.451196">
        <ele>385.9</ele>
        <time>2022-05-12T01:21:18.4890000+00:00</time>
      </trkpt>
      <trkpt lat="48.633882" lon="11.451594">
        <ele>385.09</ele>
        <time>2022-05-12T01:21:28.8280000+00:00</time>
      </trkpt>
      <trkpt lat="48.634005" lon="11.451812">
        <ele>384.58</ele>
        <time>2022-05-12T01:21:34.1230000+00:00</time>
      </trkpt>
      <trkpt lat="48.634094" lon="11.452033">
        <ele>384.16</ele>
        <time>2022-05-12T01:21:38.9050000+00:00</time>
      </trkpt>
      <trkpt lat="48.63423" lon="11.452665">
        <ele>383.45</ele>
        <time>2022-05-12T01:21:51.1840000+00:00</time>
      </trkpt>
      <trkpt lat="48.634379" lon="11.452931">
        <ele>382.49</ele>
        <time>2022-05-12T01:21:57.6260000+00:00</time>
      </trkpt>
      <trkpt lat="48.634539" lon="11.452604">
        <ele>382.78</ele>
        <time>2022-05-12T01:22:05.1420000+00:00</time>
      </trkpt>
      <trkpt lat="48.634882" lon="11.452116">
        <ele>383.01</ele>
        <time>2022-05-12T01:22:18.3040000+00:00</time>
      </trkpt>
      <trkpt lat="48.634787" lon="11.451937">
        <ele>383.3</ele>
        <time>2022-05-12T01:22:22.5450000+00:00</time>
      </trkpt>
      <trkpt lat="48.634245" lon="11.451325">
        <ele>385.22</ele>
        <time>2022-05-12T01:22:41.4500000+00:00</time>
      </trkpt>
      <trkpt lat="48.634101" lon="11.45121">
        <ele>385.55</ele>
        <time>2022-05-12T01:22:46.0020000+00:00</time>
      </trkpt>
      <trkpt lat="48.633968" lon="11.451035">
        <ele>385.85</ele>
        <time>2022-05-12T01:22:50.9290000+00:00</time>
      </trkpt>
      <trkpt lat="48.633923" lon="11.450913">
        <ele>385.97</ele>
        <time>2022-05-12T01:22:53.5100000+00:00</time>
      </trkpt>
      <trkpt lat="48.634478" lon="11.449563">
        <ele>386.65</ele>
        <time>2022-05-12T01:23:22.8820000+00:00</time>
      </trkpt>
      <trkpt lat="48.635023" lon="11.448926">
        <ele>381.89</ele>
        <time>2022-05-12T01:23:42.1330000+00:00</time>
      </trkpt>
      <trkpt lat="48.63606" lon="11.447564">
        <ele>381.82</ele>
        <time>2022-05-12T01:24:20.5190000+00:00</time>
      </trkpt>
      <trkpt lat="48.636007" lon="11.447237">
        <ele>383.2</ele>
        <time>2022-05-12T01:24:26.7390000+00:00</time>
      </trkpt>
      <trkpt lat="48.635869" lon="11.446984">
        <ele>384.4</ele>
        <time>2022-05-12T01:24:32.8000000+00:00</time>
      </trkpt>
      <trkpt lat="48.635714" lon="11.446776">
        <ele>385.08</ele>
        <time>2022-05-12T01:24:38.5910000+00:00</time>
      </trkpt>
      <trkpt lat="48.635461" lon="11.447151">
        <ele>382.31</ele>
        <time>2022-05-12T01:24:48.4910000+00:00</time>
      </trkpt>
      <trkpt lat="48.635714" lon="11.446776">
        <ele>385.08</ele>
        <time>2022-05-12T01:24:58.3910000+00:00</time>
      </trkpt>
      <trkpt lat="48.635869" lon="11.446984">
        <ele>384.4</ele>
        <time>2022-05-12T01:25:04.1830000+00:00</time>
      </trkpt>
      <trkpt lat="48.636007" lon="11.447237">
        <ele>383.2</ele>
        <time>2022-05-12T01:25:10.2430000+00:00</time>
      </trkpt>
      <trkpt lat="48.63606" lon="11.447564">
        <ele>381.82</ele>
        <time>2022-05-12T01:25:16.4630000+00:00</time>
      </trkpt>
      <trkpt lat="48.63619" lon="11.447625">
        <ele>381.67</ele>
        <time>2022-05-12T01:25:20.2680000+00:00</time>
      </trkpt>
      <trkpt lat="48.636606" lon="11.447964">
        <ele>380.57</ele>
        <time>2022-05-12T01:25:33.4760000+00:00</time>
      </trkpt>
      <trkpt lat="48.636713" lon="11.448093">
        <ele>380.79</ele>
        <time>2022-05-12T01:25:37.3010000+00:00</time>
      </trkpt>
      <trkpt lat="48.636869" lon="11.448159">
        <ele>380.94</ele>
        <time>2022-05-12T01:25:41.8290000+00:00</time>
      </trkpt>
      <trkpt lat="48.637067" lon="11.448094">
        <ele>381.53</ele>
        <time>2022-05-12T01:25:47.4920000+00:00</time>
      </trkpt>
      <trkpt lat="48.63724" lon="11.447983">
        <ele>382.6</ele>
        <time>2022-05-12T01:25:52.7450000+00:00</time>
      </trkpt>
      <trkpt lat="48.637506" lon="11.447742">
        <ele>384.76</ele>
        <time>2022-05-12T01:26:01.4120000+00:00</time>
      </trkpt>
      <trkpt lat="48.637694" lon="11.447686">
        <ele>385.81</ele>
        <time>2022-05-12T01:26:06.7690000+00:00</time>
      </trkpt>
      <trkpt lat="48.637881" lon="11.447728">
        <ele>387.45</ele>
        <time>2022-05-12T01:26:12.0540000+00:00</time>
      </trkpt>
      <trkpt lat="48.638175" lon="11.447843">
        <ele>391.58</ele>
        <time>2022-05-12T01:26:20.5420000+00:00</time>
      </trkpt>
      <trkpt lat="48.638436" lon="11.448059">
        <ele>394.69</ele>
        <time>2022-05-12T01:26:28.8580000+00:00</time>
      </trkpt>
      <trkpt lat="48.638571" lon="11.448402">
        <ele>395</ele>
        <time>2022-05-12T01:26:36.2330000+00:00</time>
      </trkpt>
      <trkpt lat="48.63862" lon="11.448662">
        <ele>394.43</ele>
        <time>2022-05-12T01:26:41.2280000+00:00</time>
      </trkpt>
      <trkpt lat="48.638618" lon="11.449149">
        <ele>392.1</ele>
        <time>2022-05-12T01:26:50.2240000+00:00</time>
      </trkpt>
      <trkpt lat="48.638635" lon="11.4495">
        <ele>390.6</ele>
        <time>2022-05-12T01:26:56.7250000+00:00</time>
      </trkpt>
      <trkpt lat="48.638712" lon="11.44981">
        <ele>388.69</ele>
        <time>2022-05-12T01:27:02.8430000+00:00</time>
      </trkpt>
      <trkpt lat="48.63888" lon="11.45015">
        <ele>386.4</ele>
        <time>2022-05-12T01:27:10.6860000+00:00</time>
      </trkpt>
      <trkpt lat="48.639268" lon="11.45066">
        <ele>384.33</ele>
        <time>2022-05-12T01:27:25.0520000+00:00</time>
      </trkpt>
      <trkpt lat="48.640266" lon="11.451489">
        <ele>381.81</ele>
        <time>2022-05-12T01:27:56.8780000+00:00</time>
      </trkpt>
      <trkpt lat="48.64057" lon="11.451568">
        <ele>382.32</ele>
        <time>2022-05-12T01:28:05.5010000+00:00</time>
      </trkpt>
      <trkpt lat="48.641278" lon="11.451611">
        <ele>384.31</ele>
        <time>2022-05-12T01:28:25.3090000+00:00</time>
      </trkpt>
      <trkpt lat="48.643388" lon="11.452537">
        <ele>391.29</ele>
        <time>2022-05-12T01:29:26.7230000+00:00</time>
      </trkpt>
      <trkpt lat="48.643932" lon="11.452791">
        <ele>392.8</ele>
        <time>2022-05-12T01:29:42.6380000+00:00</time>
      </trkpt>
      <trkpt lat="48.644494" lon="11.453104">
        <ele>396.49</ele>
        <time>2022-05-12T01:29:59.3790000+00:00</time>
      </trkpt>
      <trkpt lat="48.64486" lon="11.453399">
        <ele>399.36</ele>
        <time>2022-05-12T01:30:10.9710000+00:00</time>
      </trkpt>
      <trkpt lat="48.645464" lon="11.454084">
        <ele>401.09</ele>
        <time>2022-05-12T01:30:32.0700000+00:00</time>
      </trkpt>
      <trkpt lat="48.646116" lon="11.454684">
        <ele>399.65</ele>
        <time>2022-05-12T01:30:53.4010000+00:00</time>
      </trkpt>
      <trkpt lat="48.646602" lon="11.455067">
        <ele>398.16</ele>
        <time>2022-05-12T01:31:08.7180000+00:00</time>
      </trkpt>
      <trkpt lat="48.646873" lon="11.455269">
        <ele>397.58</ele>
        <time>2022-05-12T01:31:17.1630000+00:00</time>
      </trkpt>
      <trkpt lat="48.648218" lon="11.456007">
        <ele>405.24</ele>
        <time>2022-05-12T01:31:57.1570000+00:00</time>
      </trkpt>
      <trkpt lat="48.649087" lon="11.456671">
        <ele>407.97</ele>
        <time>2022-05-12T01:32:24.3690000+00:00</time>
      </trkpt>
      <trkpt lat="48.649364" lon="11.456986">
        <ele>408.72</ele>
        <time>2022-05-12T01:32:34.0550000+00:00</time>
      </trkpt>
      <trkpt lat="48.650164" lon="11.457762">
        <ele>408.56</ele>
        <time>2022-05-12T01:33:00.6170000+00:00</time>
      </trkpt>
      <trkpt lat="48.651346" lon="11.459091">
        <ele>408.63</ele>
        <time>2022-05-12T01:33:41.7780000+00:00</time>
      </trkpt>
      <trkpt lat="48.651755" lon="11.459441">
        <ele>408.21</ele>
        <time>2022-05-12T01:33:54.9120000+00:00</time>
      </trkpt>
      <trkpt lat="48.651969" lon="11.459723">
        <ele>407.73</ele>
        <time>2022-05-12T01:34:02.8440000+00:00</time>
      </trkpt>
      <trkpt lat="48.652936" lon="11.461271">
        <ele>400.05</ele>
        <time>2022-05-12T01:34:42.1890000+00:00</time>
      </trkpt>
      <trkpt lat="48.653274" lon="11.461664">
        <ele>399.27</ele>
        <time>2022-05-12T01:34:54.1030000+00:00</time>
      </trkpt>
      <trkpt lat="48.653537" lon="11.46191">
        <ele>398.57</ele>
        <time>2022-05-12T01:35:02.7460000+00:00</time>
      </trkpt>
      <trkpt lat="48.653798" lon="11.46219">
        <ele>397.36</ele>
        <time>2022-05-12T01:35:11.6890000+00:00</time>
      </trkpt>
      <trkpt lat="48.654077" lon="11.462406">
        <ele>395.83</ele>
        <time>2022-05-12T01:35:20.4490000+00:00</time>
      </trkpt>
      <trkpt lat="48.654374" lon="11.462587">
        <ele>394.04</ele>
        <time>2022-05-12T01:35:29.3990000+00:00</time>
      </trkpt>
      <trkpt lat="48.654498" lon="11.462751">
        <ele>392.79</ele>
        <time>2022-05-12T01:35:34.0020000+00:00</time>
      </trkpt>
      <trkpt lat="48.654657" lon="11.463091">
        <ele>391.34</ele>
        <time>2022-05-12T01:35:41.6950000+00:00</time>
      </trkpt>
      <trkpt lat="48.654868" lon="11.464074">
        <ele>389.48</ele>
        <time>2022-05-12T01:36:00.7820000+00:00</time>
      </trkpt>
      <trkpt lat="48.655062" lon="11.464785">
        <ele>387.64</ele>
        <time>2022-05-12T01:36:14.9880000+00:00</time>
      </trkpt>
      <trkpt lat="48.655073" lon="11.464912">
        <ele>387.49</ele>
        <time>2022-05-12T01:36:17.3530000+00:00</time>
      </trkpt>
      <trkpt lat="48.655398" lon="11.464967">
        <ele>386.73</ele>
        <time>2022-05-12T01:36:26.4950000+00:00</time>
      </trkpt>
      <trkpt lat="48.655761" lon="11.465144">
        <ele>385.86</ele>
        <time>2022-05-12T01:36:37.1560000+00:00</time>
      </trkpt>
      <trkpt lat="48.656792" lon="11.466126">
        <ele>382.57</ele>
        <time>2022-05-12T01:37:11.2080000+00:00</time>
      </trkpt>
      <trkpt lat="48.657447" lon="11.466708">
        <ele>382.21</ele>
        <time>2022-05-12T01:37:32.4390000+00:00</time>
      </trkpt>
      <trkpt lat="48.657551" lon="11.466687">
        <ele>382.14</ele>
        <time>2022-05-12T01:37:35.3730000+00:00</time>
      </trkpt>
      <trkpt lat="48.657572" lon="11.467017">
        <ele>382.23</ele>
        <time>2022-05-12T01:37:41.4950000+00:00</time>
      </trkpt>
      <trkpt lat="48.657554" lon="11.467023">
        <ele>382.25</ele>
        <time>2022-05-12T01:37:42.0100000+00:00</time>
      </trkpt>
      <trkpt lat="48.657572" lon="11.467017">
        <ele>382.23</ele>
        <time>2022-05-12T01:37:42.5260000+00:00</time>
      </trkpt>
      <trkpt lat="48.657551" lon="11.466687">
        <ele>382.14</ele>
        <time>2022-05-12T01:37:48.6480000+00:00</time>
      </trkpt>
      <trkpt lat="48.657999" lon="11.466652">
        <ele>382.26</ele>
        <time>2022-05-12T01:38:01.1890000+00:00</time>
      </trkpt>
      <trkpt lat="48.658691" lon="11.466642">
        <ele>382.77</ele>
        <time>2022-05-12T01:38:20.5340000+00:00</time>
      </trkpt>
      <trkpt lat="48.658898" lon="11.46672">
        <ele>382.17</ele>
        <time>2022-05-12T01:38:26.4970000+00:00</time>
      </trkpt>
      <trkpt lat="48.659295" lon="11.467">
        <ele>381.27</ele>
        <time>2022-05-12T01:38:38.7410000+00:00</time>
      </trkpt>
      <trkpt lat="48.659399" lon="11.46702">
        <ele>381.02</ele>
        <time>2022-05-12T01:38:41.6710000+00:00</time>
      </trkpt>
      <trkpt lat="48.659571" lon="11.467265">
        <ele>380.81</ele>
        <time>2022-05-12T01:38:48.2730000+00:00</time>
      </trkpt>
      <trkpt lat="48.659627" lon="11.467475">
        <ele>380.56</ele>
        <time>2022-05-12T01:38:52.4550000+00:00</time>
      </trkpt>
      <trkpt lat="48.659728" lon="11.467634">
        <ele>380.37</ele>
        <time>2022-05-12T01:38:56.5280000+00:00</time>
      </trkpt>
      <trkpt lat="48.659879" lon="11.468273">
        <ele>379.6</ele>
        <time>2022-05-12T01:39:09.0600000+00:00</time>
      </trkpt>
      <trkpt lat="48.659875" lon="11.46929">
        <ele>378.07</ele>
        <time>2022-05-12T01:39:27.8390000+00:00</time>
      </trkpt>
      <trkpt lat="48.659817" lon="11.469657">
        <ele>377.49</ele>
        <time>2022-05-12T01:39:34.8070000+00:00</time>
      </trkpt>
      <trkpt lat="48.659878" lon="11.469684">
        <ele>377.4</ele>
        <time>2022-05-12T01:39:36.5840000+00:00</time>
      </trkpt>
      <trkpt lat="48.659817" lon="11.469657">
        <ele>377.49</ele>
        <time>2022-05-12T01:39:38.3610000+00:00</time>
      </trkpt>
      <trkpt lat="48.65976" lon="11.470139">
        <ele>376.83</ele>
        <time>2022-05-12T01:39:47.4020000+00:00</time>
      </trkpt>
      <trkpt lat="48.65968" lon="11.470473">
        <ele>376.31</ele>
        <time>2022-05-12T01:39:53.9630000+00:00</time>
      </trkpt>
      <trkpt lat="48.659506" lon="11.47093">
        <ele>376.65</ele>
        <time>2022-05-12T01:40:03.7030000+00:00</time>
      </trkpt>
      <trkpt lat="48.659312" lon="11.471576">
        <ele>376.88</ele>
        <time>2022-05-12T01:40:16.8060000+00:00</time>
      </trkpt>
      <trkpt lat="48.659134" lon="11.4719">
        <ele>376.43</ele>
        <time>2022-05-12T01:40:24.5880000+00:00</time>
      </trkpt>
      <trkpt lat="48.659352" lon="11.472074">
        <ele>376.77</ele>
        <time>2022-05-12T01:40:31.4770000+00:00</time>
      </trkpt>
      <trkpt lat="48.659018" lon="11.472937">
        <ele>377</ele>
        <time>2022-05-12T01:40:49.9460000+00:00</time>
      </trkpt>
      <trkpt lat="48.658881" lon="11.472816">
        <ele>376.8</ele>
        <time>2022-05-12T01:40:54.3800000+00:00</time>
      </trkpt>
      <trkpt lat="48.659018" lon="11.472937">
        <ele>377</ele>
        <time>2022-05-12T01:40:58.8140000+00:00</time>
      </trkpt>
      <trkpt lat="48.658494" lon="11.474587">
        <ele>375.18</ele>
        <time>2022-05-12T01:41:32.6200000+00:00</time>
      </trkpt>
      <trkpt lat="48.658328" lon="11.475216">
        <ele>375.35</ele>
        <time>2022-05-12T01:41:45.1280000+00:00</time>
      </trkpt>
      <trkpt lat="48.658232" lon="11.475335">
        <ele>375.46</ele>
        <time>2022-05-12T01:41:48.5960000+00:00</time>
      </trkpt>
      <trkpt lat="48.658128" lon="11.475342">
        <ele>375.59</ele>
        <time>2022-05-12T01:41:51.5070000+00:00</time>
      </trkpt>
      <trkpt lat="48.657987" lon="11.475313">
        <ele>375.76</ele>
        <time>2022-05-12T01:41:55.4840000+00:00</time>
      </trkpt>
      <trkpt lat="48.657969" lon="11.475769">
        <ele>376.18</ele>
        <time>2022-05-12T01:42:03.9200000+00:00</time>
      </trkpt>
      <trkpt lat="48.657906" lon="11.476085">
        <ele>376.63</ele>
        <time>2022-05-12T01:42:10.0150000+00:00</time>
      </trkpt>
      <trkpt lat="48.657784" lon="11.476517">
        <ele>377</ele>
        <time>2022-05-12T01:42:18.6910000+00:00</time>
      </trkpt>
      <trkpt lat="48.657763" lon="11.476785">
        <ele>376.97</ele>
        <time>2022-05-12T01:42:23.6740000+00:00</time>
      </trkpt>
      <trkpt lat="48.657811" lon="11.47719">
        <ele>376.97</ele>
        <time>2022-05-12T01:42:31.2720000+00:00</time>
      </trkpt>
      <trkpt lat="48.658026" lon="11.477572">
        <ele>376.71</ele>
        <time>2022-05-12T01:42:40.5400000+00:00</time>
      </trkpt>
      <trkpt lat="48.658345" lon="11.477811">
        <ele>376.33</ele>
        <time>2022-05-12T01:42:50.4890000+00:00</time>
      </trkpt>
      <trkpt lat="48.658852" lon="11.47793">
        <ele>375.72</ele>
        <time>2022-05-12T01:43:04.8320000+00:00</time>
      </trkpt>
      <trkpt lat="48.659063" lon="11.478016">
        <ele>375.61</ele>
        <time>2022-05-12T01:43:10.9400000+00:00</time>
      </trkpt>
      <trkpt lat="48.659204" lon="11.478104">
        <ele>375.56</ele>
        <time>2022-05-12T01:43:15.2040000+00:00</time>
      </trkpt>
      <trkpt lat="48.659078" lon="11.478365">
        <ele>376.19</ele>
        <time>2022-05-12T01:43:21.1730000+00:00</time>
      </trkpt>
      <trkpt lat="48.65798" lon="11.484086">
        <ele>375</ele>
        <time>2022-05-12T01:45:11.1830000+00:00</time>
      </trkpt>
      <trkpt lat="48.657918" lon="11.484059">
        <ele>375</ele>
        <time>2022-05-12T01:45:12.9870000+00:00</time>
      </trkpt>
      <trkpt lat="48.65777" lon="11.484908">
        <ele>374.69</ele>
        <time>2022-05-12T01:45:29.2010000+00:00</time>
      </trkpt>
      <trkpt lat="48.656432" lon="11.492106">
        <ele>375.89</ele>
        <time>2022-05-12T01:47:47.2820000+00:00</time>
      </trkpt>
      <trkpt lat="48.654447" lon="11.501935">
        <ele>385.89</ele>
        <time>2022-05-12T01:50:57.0830000+00:00</time>
      </trkpt>
      <trkpt lat="48.653625" lon="11.505884">
        <ele>388.55</ele>
        <time>2022-05-12T01:52:13.5440000+00:00</time>
      </trkpt>
      <trkpt lat="48.65354" lon="11.506699">
        <ele>389.49</ele>
        <time>2022-05-12T01:52:28.7810000+00:00</time>
      </trkpt>
      <trkpt lat="48.653257" lon="11.507515">
        <ele>391.55</ele>
        <time>2022-05-12T01:52:45.8010000+00:00</time>
      </trkpt>
      <trkpt lat="48.652519" lon="11.51112">
        <ele>392.07</ele>
        <time>2022-05-12T01:53:55.5000000+00:00</time>
      </trkpt>
      <trkpt lat="48.652633" lon="11.511892">
        <ele>392.98</ele>
        <time>2022-05-12T01:54:10.1090000+00:00</time>
      </trkpt>
      <trkpt lat="48.652661" lon="11.513137">
        <ele>394.56</ele>
        <time>2022-05-12T01:54:33.1140000+00:00</time>
      </trkpt>
      <trkpt lat="48.652916" lon="11.515369">
        <ele>392.77</ele>
        <time>2022-05-12T01:55:14.9460000+00:00</time>
      </trkpt>
      <trkpt lat="48.653824" lon="11.518159">
        <ele>401.98</ele>
        <time>2022-05-12T01:56:12.3830000+00:00</time>
      </trkpt>
      <trkpt lat="48.654391" lon="11.519919">
        <ele>401.09</ele>
        <time>2022-05-12T01:56:48.5440000+00:00</time>
      </trkpt>
      <trkpt lat="48.654393" lon="11.519918">
        <ele>401.09</ele>
        <time>2022-05-12T01:56:48.6020000+00:00</time>
      </trkpt>
      <trkpt lat="48.654402" lon="11.519959">
        <ele>401.07</ele>
        <time>2022-05-12T01:56:49.4000000+00:00</time>
      </trkpt>
      <trkpt lat="48.654772" lon="11.520157">
        <ele>400.51</ele>
        <time>2022-05-12T01:57:00.3710000+00:00</time>
      </trkpt>
      <trkpt lat="48.655502" lon="11.520624">
        <ele>399.54</ele>
        <time>2022-05-12T01:57:22.5250000+00:00</time>
      </trkpt>
      <trkpt lat="48.655572" lon="11.520624">
        <ele>399.48</ele>
        <time>2022-05-12T01:57:24.4820000+00:00</time>
      </trkpt>
      <trkpt lat="48.656129" lon="11.520937">
        <ele>398.96</ele>
        <time>2022-05-12T01:57:41.0910000+00:00</time>
      </trkpt>
      <trkpt lat="48.657138" lon="11.521685">
        <ele>394.09</ele>
        <time>2022-05-12T01:58:12.4980000+00:00</time>
      </trkpt>
      <trkpt lat="48.658923" lon="11.523552">
        <ele>384.85</ele>
        <time>2022-05-12T01:59:13.1490000+00:00</time>
      </trkpt>
      <trkpt lat="48.659388" lon="11.524167">
        <ele>387.03</ele>
        <time>2022-05-12T01:59:30.4100000+00:00</time>
      </trkpt>
      <trkpt lat="48.659849" lon="11.524731">
        <ele>395.96</ele>
        <time>2022-05-12T01:59:46.9790000+00:00</time>
      </trkpt>
      <trkpt lat="48.660184" lon="11.524989">
        <ele>401.84</ele>
        <time>2022-05-12T01:59:57.4860000+00:00</time>
      </trkpt>
      <trkpt lat="48.660361" lon="11.52504">
        <ele>403.54</ele>
        <time>2022-05-12T02:00:02.5230000+00:00</time>
      </trkpt>
      <trkpt lat="48.660757" lon="11.525013">
        <ele>405.31</ele>
        <time>2022-05-12T02:00:13.6040000+00:00</time>
      </trkpt>
      <trkpt lat="48.661051" lon="11.525127">
        <ele>407.43</ele>
        <time>2022-05-12T02:00:22.0880000+00:00</time>
      </trkpt>
      <trkpt lat="48.662463" lon="11.525933">
        <ele>400.16</ele>
        <time>2022-05-12T02:01:04.2730000+00:00</time>
      </trkpt>
      <trkpt lat="48.662949" lon="11.526157">
        <ele>398.55</ele>
        <time>2022-05-12T02:01:18.4740000+00:00</time>
      </trkpt>
      <trkpt lat="48.663834" lon="11.526306">
        <ele>400.46</ele>
        <time>2022-05-12T02:01:43.3670000+00:00</time>
      </trkpt>
      <trkpt lat="48.664601" lon="11.526385">
        <ele>398.12</ele>
        <time>2022-05-12T02:02:04.8580000+00:00</time>
      </trkpt>
      <trkpt lat="48.665197" lon="11.526822">
        <ele>397.24</ele>
        <time>2022-05-12T02:02:23.3700000+00:00</time>
      </trkpt>
      <trkpt lat="48.666548" lon="11.527368">
        <ele>393.3</ele>
        <time>2022-05-12T02:03:02.4590000+00:00</time>
      </trkpt>
      <trkpt lat="48.667269" lon="11.527577">
        <ele>390.71</ele>
        <time>2022-05-12T02:03:22.9810000+00:00</time>
      </trkpt>
      <trkpt lat="48.667771" lon="11.527714">
        <ele>390.99</ele>
        <time>2022-05-12T02:03:37.2400000+00:00</time>
      </trkpt>
      <trkpt lat="48.672733" lon="11.524924">
        <ele>385.87</ele>
        <time>2022-05-12T02:06:05.2060000+00:00</time>
      </trkpt>
      <trkpt lat="48.672713" lon="11.52483">
        <ele>385.64</ele>
        <time>2022-05-12T02:06:07.0290000+00:00</time>
      </trkpt>
      <trkpt lat="48.672733" lon="11.524924">
        <ele>385.87</ele>
        <time>2022-05-12T02:06:08.8520000+00:00</time>
      </trkpt>
      <trkpt lat="48.67356" lon="11.524459">
        <ele>385</ele>
        <time>2022-05-12T02:06:33.5130000+00:00</time>
      </trkpt>
      <trkpt lat="48.673473" lon="11.525958">
        <ele>388.85</ele>
        <time>2022-05-12T02:07:01.2910000+00:00</time>
      </trkpt>
      <trkpt lat="48.673447" lon="11.529024">
        <ele>389.91</ele>
        <time>2022-05-12T02:07:57.8940000+00:00</time>
      </trkpt>
      <trkpt lat="48.673413" lon="11.530239">
        <ele>391.26</ele>
        <time>2022-05-12T02:08:20.3430000+00:00</time>
      </trkpt>
      <trkpt lat="48.673478" lon="11.531465">
        <ele>389.65</ele>
        <time>2022-05-12T02:08:43.0480000+00:00</time>
      </trkpt>
      <trkpt lat="48.673704" lon="11.534445">
        <ele>393.08</ele>
        <time>2022-05-12T02:09:38.4200000+00:00</time>
      </trkpt>
      <trkpt lat="48.673727" lon="11.534994">
        <ele>391.12</ele>
        <time>2022-05-12T02:09:48.5750000+00:00</time>
      </trkpt>
      <trkpt lat="48.673749" lon="11.537221">
        <ele>385.8</ele>
        <time>2022-05-12T02:10:29.6900000+00:00</time>
      </trkpt>
      <trkpt lat="48.673731" lon="11.539525">
        <ele>388.09</ele>
        <time>2022-05-12T02:11:12.2250000+00:00</time>
      </trkpt>
      <trkpt lat="48.673607" lon="11.540884">
        <ele>386.4</ele>
        <time>2022-05-12T02:11:37.5500000+00:00</time>
      </trkpt>
      <trkpt lat="48.673554" lon="11.542284">
        <ele>385.08</ele>
        <time>2022-05-12T02:12:03.4360000+00:00</time>
      </trkpt>
      <trkpt lat="48.673581" lon="11.543391">
        <ele>385.65</ele>
        <time>2022-05-12T02:12:23.8860000+00:00</time>
      </trkpt>
      <trkpt lat="48.673671" lon="11.544291">
        <ele>386.64</ele>
        <time>2022-05-12T02:12:40.6890000+00:00</time>
      </trkpt>
      <trkpt lat="48.673916" lon="11.545123">
        <ele>386.54</ele>
        <time>2022-05-12T02:12:57.5050000+00:00</time>
      </trkpt>
      <trkpt lat="48.674043" lon="11.545688">
        <ele>385.66</ele>
        <time>2022-05-12T02:13:08.5230000+00:00</time>
      </trkpt>
      <trkpt lat="48.674428" lon="11.547133">
        <ele>382.4</ele>
        <time>2022-05-12T02:13:37.2870000+00:00</time>
      </trkpt>
      <trkpt lat="48.675194" lon="11.549542">
        <ele>380.92</ele>
        <time>2022-05-12T02:14:26.6430000+00:00</time>
      </trkpt>
      <trkpt lat="48.675391" lon="11.549998">
        <ele>380.39</ele>
        <time>2022-05-12T02:14:36.7020000+00:00</time>
      </trkpt>
      <trkpt lat="48.67584" lon="11.551233999999999">
        <ele>380.68</ele>
        <time>2022-05-12T02:15:02.7420000+00:00</time>
      </trkpt>
      <trkpt lat="48.676339" lon="11.552935">
        <ele>382.2</ele>
        <time>2022-05-12T02:15:37.1000000+00:00</time>
      </trkpt>
      <trkpt lat="48.676686" lon="11.553976">
        <ele>382.08</ele>
        <time>2022-05-12T02:15:58.6250000+00:00</time>
      </trkpt>
      <trkpt lat="48.677238" lon="11.555045">
        <ele>384.02</ele>
        <time>2022-05-12T02:16:23.6750000+00:00</time>
      </trkpt>
      <trkpt lat="48.6783" lon="11.556842">
        <ele>386.96</ele>
        <time>2022-05-12T02:17:08.1900000+00:00</time>
      </trkpt>
      <trkpt lat="48.678965" lon="11.557627">
        <ele>383.63</ele>
        <time>2022-05-12T02:17:31.7600000+00:00</time>
      </trkpt>
      <trkpt lat="48.679812" lon="11.558709">
        <ele>378.74</ele>
        <time>2022-05-12T02:18:02.7360000+00:00</time>
      </trkpt>
      <trkpt lat="48.679987" lon="11.559116">
        <ele>378.51</ele>
        <time>2022-05-12T02:18:11.7010000+00:00</time>
      </trkpt>
      <trkpt lat="48.680113" lon="11.559744">
        <ele>379.04</ele>
        <time>2022-05-12T02:18:23.8150000+00:00</time>
      </trkpt>
      <trkpt lat="48.680363" lon="11.561292">
        <ele>382.24</ele>
        <time>2022-05-12T02:18:53.2300000+00:00</time>
      </trkpt>
      <trkpt lat="48.680398" lon="11.563018">
        <ele>384.92</ele>
        <time>2022-05-12T02:19:25.1030000+00:00</time>
      </trkpt>
      <trkpt lat="48.6806" lon="11.56411">
        <ele>378.61</ele>
        <time>2022-05-12T02:19:46.0340000+00:00</time>
      </trkpt>
      <trkpt lat="48.680814" lon="11.565195">
        <ele>380.36</ele>
        <time>2022-05-12T02:20:06.9350000+00:00</time>
      </trkpt>
      <trkpt lat="48.681027" lon="11.566115">
        <ele>383.29</ele>
        <time>2022-05-12T02:20:24.9290000+00:00</time>
      </trkpt>
      <trkpt lat="48.681496" lon="11.567446">
        <ele>388.56</ele>
        <time>2022-05-12T02:20:52.7750000+00:00</time>
      </trkpt>
      <trkpt lat="48.681791" lon="11.568615">
        <ele>388.91</ele>
        <time>2022-05-12T02:21:15.8740000+00:00</time>
      </trkpt>
      <trkpt lat="48.681878" lon="11.570218">
        <ele>383.98</ele>
        <time>2022-05-12T02:21:45.5600000+00:00</time>
      </trkpt>
      <trkpt lat="48.681839" lon="11.572451">
        <ele>392.26</ele>
        <time>2022-05-12T02:22:26.7890000+00:00</time>
      </trkpt>
      <trkpt lat="48.681815" lon="11.572956">
        <ele>394.04</ele>
        <time>2022-05-12T02:22:36.1340000+00:00</time>
      </trkpt>
      <trkpt lat="48.681731" lon="11.573741">
        <ele>397.95</ele>
        <time>2022-05-12T02:22:50.8120000+00:00</time>
      </trkpt>
      <trkpt lat="48.681722" lon="11.574876">
        <ele>396.69</ele>
        <time>2022-05-12T02:23:11.7620000+00:00</time>
      </trkpt>
      <trkpt lat="48.681503" lon="11.576833">
        <ele>388.73</ele>
        <time>2022-05-12T02:23:48.3970000+00:00</time>
      </trkpt>
      <trkpt lat="48.681541" lon="11.578008">
        <ele>383.97</ele>
        <time>2022-05-12T02:24:10.1100000+00:00</time>
      </trkpt>
      <trkpt lat="48.68153" lon="11.578729">
        <ele>380.79</ele>
        <time>2022-05-12T02:24:23.4210000+00:00</time>
      </trkpt>
      <trkpt lat="48.681451" lon="11.579638">
        <ele>379.45</ele>
        <time>2022-05-12T02:24:40.3440000+00:00</time>
      </trkpt>
      <trkpt lat="48.681318" lon="11.580848">
        <ele>381.26</ele>
        <time>2022-05-12T02:25:02.9840000+00:00</time>
      </trkpt>
      <trkpt lat="48.681311" lon="11.581096">
        <ele>381.44</ele>
        <time>2022-05-12T02:25:07.5660000+00:00</time>
      </trkpt>
      <trkpt lat="48.68153" lon="11.582178">
        <ele>382.26</ele>
        <time>2022-05-12T02:25:28.4530000+00:00</time>
      </trkpt>
      <trkpt lat="48.682025" lon="11.583829">
        <ele>381.82</ele>
        <time>2022-05-12T02:26:01.9210000+00:00</time>
      </trkpt>
      <trkpt lat="48.682125" lon="11.584263">
        <ele>381.84</ele>
        <time>2022-05-12T02:26:10.4050000+00:00</time>
      </trkpt>
      <trkpt lat="48.682173" lon="11.584789">
        <ele>381.8</ele>
        <time>2022-05-12T02:26:20.2050000+00:00</time>
      </trkpt>
      <trkpt lat="48.682163" lon="11.585328">
        <ele>381.73</ele>
        <time>2022-05-12T02:26:30.1570000+00:00</time>
      </trkpt>
      <trkpt lat="48.682122" lon="11.585869">
        <ele>381.92</ele>
        <time>2022-05-12T02:26:40.2080000+00:00</time>
      </trkpt>
      <trkpt lat="48.681932" lon="11.586914">
        <ele>382.88</ele>
        <time>2022-05-12T02:27:00.2130000+00:00</time>
      </trkpt>
      <trkpt lat="48.681976" lon="11.587847">
        <ele>383.84</ele>
        <time>2022-05-12T02:27:17.4780000+00:00</time>
      </trkpt>
      <trkpt lat="48.681957" lon="11.588837">
        <ele>383.69</ele>
        <time>2022-05-12T02:27:35.7580000+00:00</time>
      </trkpt>
      <trkpt lat="48.681846" lon="11.589599">
        <ele>382.9</ele>
        <time>2022-05-12T02:27:50.1600000+00:00</time>
      </trkpt>
      <trkpt lat="48.6817" lon="11.590284">
        <ele>381.68</ele>
        <time>2022-05-12T02:28:03.4460000+00:00</time>
      </trkpt>
      <trkpt lat="48.681668" lon="11.590681">
        <ele>381.63</ele>
        <time>2022-05-12T02:28:10.8270000+00:00</time>
      </trkpt>
      <trkpt lat="48.681668" lon="11.591166">
        <ele>381.63</ele>
        <time>2022-05-12T02:28:19.7790000+00:00</time>
      </trkpt>
      <trkpt lat="48.68164" lon="11.591744">
        <ele>381.7</ele>
        <time>2022-05-12T02:28:30.4760000+00:00</time>
      </trkpt>
      <trkpt lat="48.681551" lon="11.592601">
        <ele>382.18</ele>
        <time>2022-05-12T02:28:46.4880000+00:00</time>
      </trkpt>
      <trkpt lat="48.681341" lon="11.593768">
        <ele>383.13</ele>
        <time>2022-05-12T02:29:08.8130000+00:00</time>
      </trkpt>
      <trkpt lat="48.681318" lon="11.594236">
        <ele>383.21</ele>
        <time>2022-05-12T02:29:17.4750000+00:00</time>
      </trkpt>
      <trkpt lat="48.681334" lon="11.594617">
        <ele>383.06</ele>
        <time>2022-05-12T02:29:24.5210000+00:00</time>
      </trkpt>
      <trkpt lat="48.681318" lon="11.595044">
        <ele>382.73</ele>
        <time>2022-05-12T02:29:32.4150000+00:00</time>
      </trkpt>
      <trkpt lat="48.681832" lon="11.595674">
        <ele>381.6</ele>
        <time>2022-05-12T02:29:50.8990000+00:00</time>
      </trkpt>
      <trkpt lat="48.681712" lon="11.595891">
        <ele>382.02</ele>
        <time>2022-05-12T02:29:56.1240000+00:00</time>
      </trkpt>
      <trkpt lat="48.681954" lon="11.596729">
        <ele>382.64</ele>
        <time>2022-05-12T02:30:13.0060000+00:00</time>
      </trkpt>
      <trkpt lat="48.682129" lon="11.597493">
        <ele>384.53</ele>
        <time>2022-05-12T02:30:27.9310000+00:00</time>
      </trkpt>
      <trkpt lat="48.68222" lon="11.597791">
        <ele>385.49</ele>
        <time>2022-05-12T02:30:33.9910000+00:00</time>
      </trkpt>
      <trkpt lat="48.682311" lon="11.597997">
        <ele>385.81</ele>
        <time>2022-05-12T02:30:38.5660000+00:00</time>
      </trkpt>
      <trkpt lat="48.682432" lon="11.59807">
        <ele>385.91</ele>
        <time>2022-05-12T02:30:42.2070000+00:00</time>
      </trkpt>
      <trkpt lat="48.682621" lon="11.598092">
        <ele>385.94</ele>
        <time>2022-05-12T02:30:47.5060000+00:00</time>
      </trkpt>
      <trkpt lat="48.682726" lon="11.598138">
        <ele>386.09</ele>
        <time>2022-05-12T02:30:50.5610000+00:00</time>
      </trkpt>
      <trkpt lat="48.682871" lon="11.59825">
        <ele>386.11</ele>
        <time>2022-05-12T02:30:55.1120000+00:00</time>
      </trkpt>
      <trkpt lat="48.683124" lon="11.598639">
        <ele>386.2</ele>
        <time>2022-05-12T02:31:05.1900000+00:00</time>
      </trkpt>
      <trkpt lat="48.683191" lon="11.598773">
        <ele>385.95</ele>
        <time>2022-05-12T02:31:08.2920000+00:00</time>
      </trkpt>
      <trkpt lat="48.683293" lon="11.59887">
        <ele>385.46</ele>
        <time>2022-05-12T02:31:11.6590000+00:00</time>
      </trkpt>
      <trkpt lat="48.683353" lon="11.598533">
        <ele>384.92</ele>
        <time>2022-05-12T02:31:18.1010000+00:00</time>
      </trkpt>
      <trkpt lat="48.683356" lon="11.598416">
        <ele>384.68</ele>
        <time>2022-05-12T02:31:20.2620000+00:00</time>
      </trkpt>
      <trkpt lat="48.683493" lon="11.598409">
        <ele>384.11</ele>
        <time>2022-05-12T02:31:24.0940000+00:00</time>
      </trkpt>
      <trkpt lat="48.683673" lon="11.598348">
        <ele>383.43</ele>
        <time>2022-05-12T02:31:29.2500000+00:00</time>
      </trkpt>
      <trkpt lat="48.684004" lon="11.598065">
        <ele>382.3</ele>
        <time>2022-05-12T02:31:39.8760000+00:00</time>
      </trkpt>
      <trkpt lat="48.684055" lon="11.597953">
        <ele>382.04</ele>
        <time>2022-05-12T02:31:42.3870000+00:00</time>
      </trkpt>
      <trkpt lat="48.684125" lon="11.597351">
        <ele>381.15</ele>
        <time>2022-05-12T02:31:53.6680000+00:00</time>
      </trkpt>
      <trkpt lat="48.684158" lon="11.597208">
        <ele>380.9</ele>
        <time>2022-05-12T02:31:56.4640000+00:00</time>
      </trkpt>
      <trkpt lat="48.684235" lon="11.597026">
        <ele>380.5</ele>
        <time>2022-05-12T02:32:00.4540000+00:00</time>
      </trkpt>
      <trkpt lat="48.684315" lon="11.596921">
        <ele>380.08</ele>
        <time>2022-05-12T02:32:03.4130000+00:00</time>
      </trkpt>
      <trkpt lat="48.684274" lon="11.59684">
        <ele>379.98</ele>
        <time>2022-05-12T02:32:05.2970000+00:00</time>
      </trkpt>
      <trkpt lat="48.684315" lon="11.596921">
        <ele>380.08</ele>
        <time>2022-05-12T02:32:07.1800000+00:00</time>
      </trkpt>
      <trkpt lat="48.684514" lon="11.596759">
        <ele>379.47</ele>
        <time>2022-05-12T02:32:13.4960000+00:00</time>
      </trkpt>
      <trkpt lat="48.684557" lon="11.596693">
        <ele>379.37</ele>
        <time>2022-05-12T02:32:15.2070000+00:00</time>
      </trkpt>
      <trkpt lat="48.684682" lon="11.596726">
        <ele>379.54</ele>
        <time>2022-05-12T02:32:18.7540000+00:00</time>
      </trkpt>
      <trkpt lat="48.684761" lon="11.597595">
        <ele>380.71</ele>
        <time>2022-05-12T02:32:34.9440000+00:00</time>
      </trkpt>
      <trkpt lat="48.684839" lon="11.598085">
        <ele>381.3</ele>
        <time>2022-05-12T02:32:44.2460000+00:00</time>
      </trkpt>
      <trkpt lat="48.685025" lon="11.59884">
        <ele>382</ele>
        <time>2022-05-12T02:32:59.1190000+00:00</time>
      </trkpt>
      <trkpt lat="48.685082" lon="11.599169">
        <ele>382</ele>
        <time>2022-05-12T02:33:05.3970000+00:00</time>
      </trkpt>
      <trkpt lat="48.685113" lon="11.599684">
        <ele>381.64</ele>
        <time>2022-05-12T02:33:14.9410000+00:00</time>
      </trkpt>
      <trkpt lat="48.685215" lon="11.600808">
        <ele>380.05</ele>
        <time>2022-05-12T02:33:35.8800000+00:00</time>
      </trkpt>
      <trkpt lat="48.685241" lon="11.601537">
        <ele>380.87</ele>
        <time>2022-05-12T02:33:49.3540000+00:00</time>
      </trkpt>
      <trkpt lat="48.684954" lon="11.601561">
        <ele>380.6</ele>
        <time>2022-05-12T02:33:57.3890000+00:00</time>
      </trkpt>
      <trkpt lat="48.685241" lon="11.601537">
        <ele>380.87</ele>
        <time>2022-05-12T02:34:05.4240000+00:00</time>
      </trkpt>
      <trkpt lat="48.685364" lon="11.602413">
        <ele>382.01</ele>
        <time>2022-05-12T02:34:21.9530000+00:00</time>
      </trkpt>
      <trkpt lat="48.685537" lon="11.60335">
        <ele>380.84</ele>
        <time>2022-05-12T02:34:39.9100000+00:00</time>
      </trkpt>
      <trkpt lat="48.685666" lon="11.604234">
        <ele>379.66</ele>
        <time>2022-05-12T02:34:56.6180000+00:00</time>
      </trkpt>
      <trkpt lat="48.685876" lon="11.605137">
        <ele>379.94</ele>
        <time>2022-05-12T02:35:14.2870000+00:00</time>
      </trkpt>
      <trkpt lat="48.686087" lon="11.605718">
        <ele>380.93</ele>
        <time>2022-05-12T02:35:26.5250000+00:00</time>
      </trkpt>
      <trkpt lat="48.686162" lon="11.606051">
        <ele>381.5</ele>
        <time>2022-05-12T02:35:33.0180000+00:00</time>
      </trkpt>
      <trkpt lat="48.686313" lon="11.607046">
        <ele>383.21</ele>
        <time>2022-05-12T02:35:51.8600000+00:00</time>
      </trkpt>
      <trkpt lat="48.686305" lon="11.607701">
        <ele>383.24</ele>
        <time>2022-05-12T02:36:03.9510000+00:00</time>
      </trkpt>
      <trkpt lat="48.686318" lon="11.608177">
        <ele>383.31</ele>
        <time>2022-05-12T02:36:12.7430000+00:00</time>
      </trkpt>
      <trkpt lat="48.686598" lon="11.609776">
        <ele>384.4</ele>
        <time>2022-05-12T02:36:43.2730000+00:00</time>
      </trkpt>
      <trkpt lat="48.686713" lon="11.610057">
        <ele>384.26</ele>
        <time>2022-05-12T02:36:49.3750000+00:00</time>
      </trkpt>
      <trkpt lat="48.686892" lon="11.610339">
        <ele>384.06</ele>
        <time>2022-05-12T02:36:56.5950000+00:00</time>
      </trkpt>
      <trkpt lat="48.687438" lon="11.611062">
        <ele>384.34</ele>
        <time>2022-05-12T02:37:16.8680000+00:00</time>
      </trkpt>
      <trkpt lat="48.687681" lon="11.611479">
        <ele>384.87</ele>
        <time>2022-05-12T02:37:27.1330000+00:00</time>
      </trkpt>
      <trkpt lat="48.68778" lon="11.611693">
        <ele>385.22</ele>
        <time>2022-05-12T02:37:31.9550000+00:00</time>
      </trkpt>
      <trkpt lat="48.687883" lon="11.611994">
        <ele>385.55</ele>
        <time>2022-05-12T02:37:38.2120000+00:00</time>
      </trkpt>
      <trkpt lat="48.687902" lon="11.61242">
        <ele>385.15</ele>
        <time>2022-05-12T02:37:46.0920000+00:00</time>
      </trkpt>
      <trkpt lat="48.687881" lon="11.612419">
        <ele>385.2</ele>
        <time>2022-05-12T02:37:46.6790000+00:00</time>
      </trkpt>
      <trkpt lat="48.687877" lon="11.61251">
        <ele>385.13</ele>
        <time>2022-05-12T02:37:48.3620000+00:00</time>
      </trkpt>
      <trkpt lat="48.687881" lon="11.612419">
        <ele>385.2</ele>
        <time>2022-05-12T02:37:50.0450000+00:00</time>
      </trkpt>
      <trkpt lat="48.687385" lon="11.612402">
        <ele>386.18</ele>
        <time>2022-05-12T02:38:03.9140000+00:00</time>
      </trkpt>
      <trkpt lat="48.686713" lon="11.612422">
        <ele>387.12</ele>
        <time>2022-05-12T02:38:22.7040000+00:00</time>
      </trkpt>
      <trkpt lat="48.68527" lon="11.612623">
        <ele>387.99</ele>
        <time>2022-05-12T02:39:03.2130000+00:00</time>
      </trkpt>
      <trkpt lat="48.685136" lon="11.612565">
        <ele>388.15</ele>
        <time>2022-05-12T02:39:07.1090000+00:00</time>
      </trkpt>
      <trkpt lat="48.684883" lon="11.612386">
        <ele>388.46</ele>
        <time>2022-05-12T02:39:14.9150000+00:00</time>
      </trkpt>
      <trkpt lat="48.684742" lon="11.612588">
        <ele>388.62</ele>
        <time>2022-05-12T02:39:20.3400000+00:00</time>
      </trkpt>
      <trkpt lat="48.684487" lon="11.612875">
        <ele>388.81</ele>
        <time>2022-05-12T02:39:29.2210000+00:00</time>
      </trkpt>
      <trkpt lat="48.684241" lon="11.613247">
        <ele>387.3</ele>
        <time>2022-05-12T02:39:38.9390000+00:00</time>
      </trkpt>
      <trkpt lat="48.684186" lon="11.613358">
        <ele>386.75</ele>
        <time>2022-05-12T02:39:41.5000000+00:00</time>
      </trkpt>
      <trkpt lat="48.684038" lon="11.612863">
        <ele>387.92</ele>
        <time>2022-05-12T02:39:51.5290000+00:00</time>
      </trkpt>
      <trkpt lat="48.683991" lon="11.612891">
        <ele>387.7</ele>
        <time>2022-05-12T02:39:52.9410000+00:00</time>
      </trkpt>
      <trkpt lat="48.684038" lon="11.612863">
        <ele>387.92</ele>
        <time>2022-05-12T02:39:54.3530000+00:00</time>
      </trkpt>
      <trkpt lat="48.684186" lon="11.613358">
        <ele>386.75</ele>
        <time>2022-05-12T02:40:04.3820000+00:00</time>
      </trkpt>
      <trkpt lat="48.684378" lon="11.613485">
        <ele>387.19</ele>
        <time>2022-05-12T02:40:10.2390000+00:00</time>
      </trkpt>
      <trkpt lat="48.684956" lon="11.6138">
        <ele>387.44</ele>
        <time>2022-05-12T02:40:27.4110000+00:00</time>
      </trkpt>
      <trkpt lat="48.68495" lon="11.614823">
        <ele>384.74</ele>
        <time>2022-05-12T02:40:46.2920000+00:00</time>
      </trkpt>
      <trkpt lat="48.684929" lon="11.615236">
        <ele>382.45</ele>
        <time>2022-05-12T02:40:53.9370000+00:00</time>
      </trkpt>
      <trkpt lat="48.684669" lon="11.616074">
        <ele>376.94</ele>
        <time>2022-05-12T02:41:11.0250000+00:00</time>
      </trkpt>
      <trkpt lat="48.684627" lon="11.616162">
        <ele>376.46</ele>
        <time>2022-05-12T02:41:13.0290000+00:00</time>
      </trkpt>
      <trkpt lat="48.684093" lon="11.616822">
        <ele>374.79</ele>
        <time>2022-05-12T02:41:32.2960000+00:00</time>
      </trkpt>
      <trkpt lat="48.684005" lon="11.616959">
        <ele>374.52</ele>
        <time>2022-05-12T02:41:35.8240000+00:00</time>
      </trkpt>
      <trkpt lat="48.683936" lon="11.617212">
        <ele>374.57</ele>
        <time>2022-05-12T02:41:40.8760000+00:00</time>
      </trkpt>
      <trkpt lat="48.683683" lon="11.617694">
        <ele>374.87</ele>
        <time>2022-05-12T02:41:52.2410000+00:00</time>
      </trkpt>
      <trkpt lat="48.684193" lon="11.618746">
        <ele>375.4</ele>
        <time>2022-05-12T02:42:16.3290000+00:00</time>
      </trkpt>
      <trkpt lat="48.684845" lon="11.620012">
        <ele>377.27</ele>
        <time>2022-05-12T02:42:45.9630000+00:00</time>
      </trkpt>
      <trkpt lat="48.684678" lon="11.620323">
        <ele>378.39</ele>
        <time>2022-05-12T02:42:53.3610000+00:00</time>
      </trkpt>
      <trkpt lat="48.684637" lon="11.620427">
        <ele>378.3</ele>
        <time>2022-05-12T02:42:55.5970000+00:00</time>
      </trkpt>
      <trkpt lat="48.684658" lon="11.620571">
        <ele>378.04</ele>
        <time>2022-05-12T02:42:58.3190000+00:00</time>
      </trkpt>
      <trkpt lat="48.685066" lon="11.621265">
        <ele>378.67</ele>
        <time>2022-05-12T02:43:15.4690000+00:00</time>
      </trkpt>
      <trkpt lat="48.685384" lon="11.621715">
        <ele>377.48</ele>
        <time>2022-05-12T02:43:27.6350000+00:00</time>
      </trkpt>
      <trkpt lat="48.685792" lon="11.622177">
        <ele>375.24</ele>
        <time>2022-05-12T02:43:41.8750000+00:00</time>
      </trkpt>
      <trkpt lat="48.685464" lon="11.622848">
        <ele>373.19</ele>
        <time>2022-05-12T02:43:57.2840000+00:00</time>
      </trkpt>
      <trkpt lat="48.685792" lon="11.622177">
        <ele>375.24</ele>
        <time>2022-05-12T02:44:12.6930000+00:00</time>
      </trkpt>
      <trkpt lat="48.686533" lon="11.623058">
        <ele>374.93</ele>
        <time>2022-05-12T02:44:39.0260000+00:00</time>
      </trkpt>
      <trkpt lat="48.687064" lon="11.623488">
        <ele>376.35</ele>
        <time>2022-05-12T02:44:55.8580000+00:00</time>
      </trkpt>
      <trkpt lat="48.68714" lon="11.623594">
        <ele>376.19</ele>
        <time>2022-05-12T02:44:58.7460000+00:00</time>
      </trkpt>
      <trkpt lat="48.687153" lon="11.623726">
        <ele>376.02</ele>
        <time>2022-05-12T02:45:01.2090000+00:00</time>
      </trkpt>
      <trkpt lat="48.687142" lon="11.624206">
        <ele>375.06</ele>
        <time>2022-05-12T02:45:10.0730000+00:00</time>
      </trkpt>
      <trkpt lat="48.687111" lon="11.624873">
        <ele>373.45</ele>
        <time>2022-05-12T02:45:22.4130000+00:00</time>
      </trkpt>
      <trkpt lat="48.687082" lon="11.625173">
        <ele>372.59</ele>
        <time>2022-05-12T02:45:28.0090000+00:00</time>
      </trkpt>
      <trkpt lat="48.68703" lon="11.625392">
        <ele>372.2</ele>
        <time>2022-05-12T02:45:32.3040000+00:00</time>
      </trkpt>
      <trkpt lat="48.686931" lon="11.625573">
        <ele>372.31</ele>
        <time>2022-05-12T02:45:36.6420000+00:00</time>
      </trkpt>
      <trkpt lat="48.686716" lon="11.625749">
        <ele>372.66</ele>
        <time>2022-05-12T02:45:43.4730000+00:00</time>
      </trkpt>
      <trkpt lat="48.686336" lon="11.62601">
        <ele>373.43</ele>
        <time>2022-05-12T02:45:55.1370000+00:00</time>
      </trkpt>
      <trkpt lat="48.685979" lon="11.626077">
        <ele>373.71</ele>
        <time>2022-05-12T02:46:05.1930000+00:00</time>
      </trkpt>
      <trkpt lat="48.685366" lon="11.625987">
        <ele>372.91</ele>
        <time>2022-05-12T02:46:22.4100000+00:00</time>
      </trkpt>
      <trkpt lat="48.685194" lon="11.626082">
        <ele>373.08</ele>
        <time>2022-05-12T02:46:27.5280000+00:00</time>
      </trkpt>
      <trkpt lat="48.685091" lon="11.626204">
        <ele>373.48</ele>
        <time>2022-05-12T02:46:31.1830000+00:00</time>
      </trkpt>
      <trkpt lat="48.684926" lon="11.626659">
        <ele>374.43</ele>
        <time>2022-05-12T02:46:40.7640000+00:00</time>
      </trkpt>
      <trkpt lat="48.68485" lon="11.6271">
        <ele>375.14</ele>
        <time>2022-05-12T02:46:49.1760000+00:00</time>
      </trkpt>
      <trkpt lat="48.684562" lon="11.627523">
        <ele>375.89</ele>
        <time>2022-05-12T02:47:00.3900000+00:00</time>
      </trkpt>
      <trkpt lat="48.68425" lon="11.627894">
        <ele>376.43</ele>
        <time>2022-05-12T02:47:11.4790000+00:00</time>
      </trkpt>
      <trkpt lat="48.683996" lon="11.628065">
        <ele>377.04</ele>
        <time>2022-05-12T02:47:19.2490000+00:00</time>
      </trkpt>
      <trkpt lat="48.683656" lon="11.628385">
        <ele>377.86</ele>
        <time>2022-05-12T02:47:30.4390000+00:00</time>
      </trkpt>
      <trkpt lat="48.683352" lon="11.628918">
        <ele>377.8</ele>
        <time>2022-05-12T02:47:43.4390000+00:00</time>
      </trkpt>
      <trkpt lat="48.682792" lon="11.630112">
        <ele>378.71</ele>
        <time>2022-05-12T02:48:10.4700000+00:00</time>
      </trkpt>
      <trkpt lat="48.681957" lon="11.631538">
        <ele>380.94</ele>
        <time>2022-05-12T02:48:45.6500000+00:00</time>
      </trkpt>
      <trkpt lat="48.681621" lon="11.631998">
        <ele>380.64</ele>
        <time>2022-05-12T02:48:58.3110000+00:00</time>
      </trkpt>
      <trkpt lat="48.68144" lon="11.632284">
        <ele>380.63</ele>
        <time>2022-05-12T02:49:05.6230000+00:00</time>
      </trkpt>
      <trkpt lat="48.680996" lon="11.632292">
        <ele>380.26</ele>
        <time>2022-05-12T02:49:18.0360000+00:00</time>
      </trkpt>
      <trkpt lat="48.68066" lon="11.632186">
        <ele>379.73</ele>
        <time>2022-05-12T02:49:27.6300000+00:00</time>
      </trkpt>
      <trkpt lat="48.680372" lon="11.632028">
        <ele>379.19</ele>
        <time>2022-05-12T02:49:36.1930000+00:00</time>
      </trkpt>
      <trkpt lat="48.679919" lon="11.631705">
        <ele>378.26</ele>
        <time>2022-05-12T02:49:50.1900000+00:00</time>
      </trkpt>
      <trkpt lat="48.679256" lon="11.632184">
        <ele>378.48</ele>
        <time>2022-05-12T02:50:10.7250000+00:00</time>
      </trkpt>
      <trkpt lat="48.678777" lon="11.632758">
        <ele>380.32</ele>
        <time>2022-05-12T02:50:27.8000000+00:00</time>
      </trkpt>
      <trkpt lat="48.678389" lon="11.633417">
        <ele>382.43</ele>
        <time>2022-05-12T02:50:44.0970000+00:00</time>
      </trkpt>
      <trkpt lat="48.678192" lon="11.634116">
        <ele>383.18</ele>
        <time>2022-05-12T02:50:58.1260000+00:00</time>
      </trkpt>
      <trkpt lat="48.678081" lon="11.63477">
        <ele>383.36</ele>
        <time>2022-05-12T02:51:10.5900000+00:00</time>
      </trkpt>
      <trkpt lat="48.677806" lon="11.63554">
        <ele>385.05</ele>
        <time>2022-05-12T02:51:26.7490000+00:00</time>
      </trkpt>
      <trkpt lat="48.677617" lon="11.635912">
        <ele>386.33</ele>
        <time>2022-05-12T02:51:35.4130000+00:00</time>
      </trkpt>
      <trkpt lat="48.677193" lon="11.637184">
        <ele>388.69</ele>
        <time>2022-05-12T02:52:01.7140000+00:00</time>
      </trkpt>
      <trkpt lat="48.67694" lon="11.637789">
        <ele>389.98</ele>
        <time>2022-05-12T02:52:14.9330000+00:00</time>
      </trkpt>
      <trkpt lat="48.676655" lon="11.63861">
        <ele>390.05</ele>
        <time>2022-05-12T02:52:32.0540000+00:00</time>
      </trkpt>
      <trkpt lat="48.676498" lon="11.639221">
        <ele>390.82</ele>
        <time>2022-05-12T02:52:44.1560000+00:00</time>
      </trkpt>
      <trkpt lat="48.676438" lon="11.639777">
        <ele>391.34</ele>
        <time>2022-05-12T02:52:54.5560000+00:00</time>
      </trkpt>
      <trkpt lat="48.676359" lon="11.640304">
        <ele>392.15</ele>
        <time>2022-05-12T02:53:04.5310000+00:00</time>
      </trkpt>
      <trkpt lat="48.676125" lon="11.640892">
        <ele>393.13</ele>
        <time>2022-05-12T02:53:17.2040000+00:00</time>
      </trkpt>
      <trkpt lat="48.675732" lon="11.642271">
        <ele>392.68</ele>
        <time>2022-05-12T02:53:44.9280000+00:00</time>
      </trkpt>
      <trkpt lat="48.675536" lon="11.643602">
        <ele>390.76</ele>
        <time>2022-05-12T02:54:10.1010000+00:00</time>
      </trkpt>
      <trkpt lat="48.675309" lon="11.644418">
        <ele>389.06</ele>
        <time>2022-05-12T02:54:26.4460000+00:00</time>
      </trkpt>
      <trkpt lat="48.675196" lon="11.644887">
        <ele>388.76</ele>
        <time>2022-05-12T02:54:35.6620000+00:00</time>
      </trkpt>
      <trkpt lat="48.675194" lon="11.645405">
        <ele>388.25</ele>
        <time>2022-05-12T02:54:45.2240000+00:00</time>
      </trkpt>
      <trkpt lat="48.675109" lon="11.64629">
        <ele>387.65</ele>
        <time>2022-05-12T02:55:01.7320000+00:00</time>
      </trkpt>
      <trkpt lat="48.674782" lon="11.647175">
        <ele>386.64</ele>
        <time>2022-05-12T02:55:20.4530000+00:00</time>
      </trkpt>
      <trkpt lat="48.674181" lon="11.648208">
        <ele>389.38</ele>
        <time>2022-05-12T02:55:45.8670000+00:00</time>
      </trkpt>
      <trkpt lat="48.674033" lon="11.648291">
        <ele>389.23</ele>
        <time>2022-05-12T02:55:50.2790000+00:00</time>
      </trkpt>
      <trkpt lat="48.673832" lon="11.648309">
        <ele>388.67</ele>
        <time>2022-05-12T02:55:55.9080000+00:00</time>
      </trkpt>
      <trkpt lat="48.673633" lon="11.648291">
        <ele>388.08</ele>
        <time>2022-05-12T02:56:01.4810000+00:00</time>
      </trkpt>
      <trkpt lat="48.673565" lon="11.648205">
        <ele>388.07</ele>
        <time>2022-05-12T02:56:03.9570000+00:00</time>
      </trkpt>
      <trkpt lat="48.6731" lon="11.649602">
        <ele>390.92</ele>
        <time>2022-05-12T02:56:32.8370000+00:00</time>
      </trkpt>
      <trkpt lat="48.672856" lon="11.650564">
        <ele>393.02</ele>
        <time>2022-05-12T02:56:51.8600000+00:00</time>
      </trkpt>
      <trkpt lat="48.672538" lon="11.651361">
        <ele>397.92</ele>
        <time>2022-05-12T02:57:09.0500000+00:00</time>
      </trkpt>
      <trkpt lat="48.672191" lon="11.652451">
        <ele>399.48</ele>
        <time>2022-05-12T02:57:31.3880000+00:00</time>
      </trkpt>
      <trkpt lat="48.671333" lon="11.654122">
        <ele>397.24</ele>
        <time>2022-05-12T02:58:10.4630000+00:00</time>
      </trkpt>
      <trkpt lat="48.671556" lon="11.654394">
        <ele>400.9</ele>
        <time>2022-05-12T02:58:18.4680000+00:00</time>
      </trkpt>
      <trkpt lat="48.671333" lon="11.654122">
        <ele>397.24</ele>
        <time>2022-05-12T02:58:26.4730000+00:00</time>
      </trkpt>
      <trkpt lat="48.6708" lon="11.655159">
        <ele>399.09</ele>
        <time>2022-05-12T02:58:50.7320000+00:00</time>
      </trkpt>
      <trkpt lat="48.670274" lon="11.656231">
        <ele>399.2</ele>
        <time>2022-05-12T02:59:15.3870000+00:00</time>
      </trkpt>
      <trkpt lat="48.669912" lon="11.657012">
        <ele>402.37</ele>
        <time>2022-05-12T02:59:33.0020000+00:00</time>
      </trkpt>
      <trkpt lat="48.66961" lon="11.65757">
        <ele>402.02</ele>
        <time>2022-05-12T02:59:46.3210000+00:00</time>
      </trkpt>
      <trkpt lat="48.669379" lon="11.657954">
        <ele>401.12</ele>
        <time>2022-05-12T02:59:55.9100000+00:00</time>
      </trkpt>
      <trkpt lat="48.668726" lon="11.657039">
        <ele>396.61</ele>
        <time>2022-05-12T03:00:20.7820000+00:00</time>
      </trkpt>
      <trkpt lat="48.66853" lon="11.65689">
        <ele>397.17</ele>
        <time>2022-05-12T03:00:26.9120000+00:00</time>
      </trkpt>
      <trkpt lat="48.668238" lon="11.656736">
        <ele>397.71</ele>
        <time>2022-05-12T03:00:35.5560000+00:00</time>
      </trkpt>
      <trkpt lat="48.668098" lon="11.656738">
        <ele>397.87</ele>
        <time>2022-05-12T03:00:39.4700000+00:00</time>
      </trkpt>
      <trkpt lat="48.667994" lon="11.65678">
        <ele>397.95</ele>
        <time>2022-05-12T03:00:42.4790000+00:00</time>
      </trkpt>
      <trkpt lat="48.667881" lon="11.656879">
        <ele>397.96</ele>
        <time>2022-05-12T03:00:46.1290000+00:00</time>
      </trkpt>
      <trkpt lat="48.667721" lon="11.65698">
        <ele>398.17</ele>
        <time>2022-05-12T03:00:50.9750000+00:00</time>
      </trkpt>
      <trkpt lat="48.667374" lon="11.657643">
        <ele>398.62</ele>
        <time>2022-05-12T03:01:06.5930000+00:00</time>
      </trkpt>
      <trkpt lat="48.667021" lon="11.658213">
        <ele>398.79</ele>
        <time>2022-05-12T03:01:21.0190000+00:00</time>
      </trkpt>
      <trkpt lat="48.665879" lon="11.660208">
        <ele>399.62</ele>
        <time>2022-05-12T03:02:09.7620000+00:00</time>
      </trkpt>
      <trkpt lat="48.665547" lon="11.660666">
        <ele>400.77</ele>
        <time>2022-05-12T03:02:22.3170000+00:00</time>
      </trkpt>
      <trkpt lat="48.6651" lon="11.661067">
        <ele>401.55</ele>
        <time>2022-05-12T03:02:36.8420000+00:00</time>
      </trkpt>
      <trkpt lat="48.664772" lon="11.661552">
        <ele>402.22</ele>
        <time>2022-05-12T03:02:49.6580000+00:00</time>
      </trkpt>
      <trkpt lat="48.664679" lon="11.661886">
        <ele>402.44</ele>
        <time>2022-05-12T03:02:56.3500000+00:00</time>
      </trkpt>
      <trkpt lat="48.6648" lon="11.662252">
        <ele>402.15</ele>
        <time>2022-05-12T03:03:03.9070000+00:00</time>
      </trkpt>
      <trkpt lat="48.665016" lon="11.662638">
        <ele>401.63</ele>
        <time>2022-05-12T03:03:13.2480000+00:00</time>
      </trkpt>
      <trkpt lat="48.664896" lon="11.662834">
        <ele>402.16</ele>
        <time>2022-05-12T03:03:18.1820000+00:00</time>
      </trkpt>
      <trkpt lat="48.664929" lon="11.662862">
        <ele>402.24</ele>
        <time>2022-05-12T03:03:19.2400000+00:00</time>
      </trkpt>
      <trkpt lat="48.664979" lon="11.662857">
        <ele>402.13</ele>
        <time>2022-05-12T03:03:20.6410000+00:00</time>
      </trkpt>
      <trkpt lat="48.66498" lon="11.662893">
        <ele>402.32</ele>
        <time>2022-05-12T03:03:21.3060000+00:00</time>
      </trkpt>
      <trkpt lat="48.664979" lon="11.662857">
        <ele>402.13</ele>
        <time>2022-05-12T03:03:21.9710000+00:00</time>
      </trkpt>
      <trkpt lat="48.664929" lon="11.662862">
        <ele>402.24</ele>
        <time>2022-05-12T03:03:23.3720000+00:00</time>
      </trkpt>
      <trkpt lat="48.664896" lon="11.662834">
        <ele>402.16</ele>
        <time>2022-05-12T03:03:24.4290000+00:00</time>
      </trkpt>
      <trkpt lat="48.665016" lon="11.662638">
        <ele>401.63</ele>
        <time>2022-05-12T03:03:29.3640000+00:00</time>
      </trkpt>
      <trkpt lat="48.665238" lon="11.662617">
        <ele>401.1</ele>
        <time>2022-05-12T03:03:35.5820000+00:00</time>
      </trkpt>
      <trkpt lat="48.665985" lon="11.661766">
        <ele>400.44</ele>
        <time>2022-05-12T03:04:01.7150000+00:00</time>
      </trkpt>
      <trkpt lat="48.66614" lon="11.661824">
        <ele>400.9</ele>
        <time>2022-05-12T03:04:06.1780000+00:00</time>
      </trkpt>
      <trkpt lat="48.666286" lon="11.662196">
        <ele>404.68</ele>
        <time>2022-05-12T03:04:14.1670000+00:00</time>
      </trkpt>
      <trkpt lat="48.666471" lon="11.663656">
        <ele>418.15</ele>
        <time>2022-05-12T03:04:41.6140000+00:00</time>
      </trkpt>
      <trkpt lat="48.666676" lon="11.664941">
        <ele>425.97</ele>
        <time>2022-05-12T03:05:06.0210000+00:00</time>
      </trkpt>
      <trkpt lat="48.66776" lon="11.668666">
        <ele>431.26</ele>
        <time>2022-05-12T03:06:21.1740000+00:00</time>
      </trkpt>
      <trkpt lat="48.668139" lon="11.669494">
        <ele>432.67</ele>
        <time>2022-05-12T03:06:39.7730000+00:00</time>
      </trkpt>
      <trkpt lat="48.669313" lon="11.671029">
        <ele>428.11</ele>
        <time>2022-05-12T03:07:23.1340000+00:00</time>
      </trkpt>
      <trkpt lat="48.672582" lon="11.676594">
        <ele>407.55</ele>
        <time>2022-05-12T03:09:40.6310000+00:00</time>
      </trkpt>
      <trkpt lat="48.673262" lon="11.677252">
        <ele>403.11</ele>
        <time>2022-05-12T03:10:03.1900000+00:00</time>
      </trkpt>
      <trkpt lat="48.673475" lon="11.677396">
        <ele>401.99</ele>
        <time>2022-05-12T03:10:09.7110000+00:00</time>
      </trkpt>
      <trkpt lat="48.67383" lon="11.677423">
        <ele>400.61</ele>
        <time>2022-05-12T03:10:19.6470000+00:00</time>
      </trkpt>
      <trkpt lat="48.674029" lon="11.67747">
        <ele>399.83</ele>
        <time>2022-05-12T03:10:25.2780000+00:00</time>
      </trkpt>
      <trkpt lat="48.674045" lon="11.677606">
        <ele>399.61</ele>
        <time>2022-05-12T03:10:27.8280000+00:00</time>
      </trkpt>
      <trkpt lat="48.674337" lon="11.677971">
        <ele>399</ele>
        <time>2022-05-12T03:10:38.4120000+00:00</time>
      </trkpt>
      <trkpt lat="48.674396" lon="11.678126">
        <ele>399.37</ele>
        <time>2022-05-12T03:10:41.7150000+00:00</time>
      </trkpt>
      <trkpt lat="48.674378" lon="11.678304">
        <ele>400.01</ele>
        <time>2022-05-12T03:10:45.0390000+00:00</time>
      </trkpt>
      <trkpt lat="48.674256" lon="11.678572">
        <ele>400.92</ele>
        <time>2022-05-12T03:10:51.0480000+00:00</time>
      </trkpt>
      <trkpt lat="48.674276" lon="11.678602">
        <ele>401</ele>
        <time>2022-05-12T03:10:51.8350000+00:00</time>
      </trkpt>
      <trkpt lat="48.674256" lon="11.678572">
        <ele>400.92</ele>
        <time>2022-05-12T03:10:52.6220000+00:00</time>
      </trkpt>
      <trkpt lat="48.674378" lon="11.678304">
        <ele>400.01</ele>
        <time>2022-05-12T03:10:58.6310000+00:00</time>
      </trkpt>
      <trkpt lat="48.674396" lon="11.678126">
        <ele>399.37</ele>
        <time>2022-05-12T03:11:01.9550000+00:00</time>
      </trkpt>
      <trkpt lat="48.674337" lon="11.677971">
        <ele>399</ele>
        <time>2022-05-12T03:11:05.2580000+00:00</time>
      </trkpt>
      <trkpt lat="48.674045" lon="11.677606">
        <ele>399.61</ele>
        <time>2022-05-12T03:11:15.8420000+00:00</time>
      </trkpt>
      <trkpt lat="48.674029" lon="11.67747">
        <ele>399.83</ele>
        <time>2022-05-12T03:11:18.3920000+00:00</time>
      </trkpt>
      <trkpt lat="48.67383" lon="11.677423">
        <ele>400.61</ele>
        <time>2022-05-12T03:11:24.0220000+00:00</time>
      </trkpt>
      <trkpt lat="48.673475" lon="11.677396">
        <ele>401.99</ele>
        <time>2022-05-12T03:11:33.9590000+00:00</time>
      </trkpt>
      <trkpt lat="48.673262" lon="11.677252">
        <ele>403.11</ele>
        <time>2022-05-12T03:11:40.4800000+00:00</time>
      </trkpt>
      <trkpt lat="48.672582" lon="11.676594">
        <ele>407.55</ele>
        <time>2022-05-12T03:12:03.0380000+00:00</time>
      </trkpt>
      <trkpt lat="48.669313" lon="11.671029">
        <ele>428.11</ele>
        <time>2022-05-12T03:14:20.5360000+00:00</time>
      </trkpt>
      <trkpt lat="48.668139" lon="11.669494">
        <ele>432.67</ele>
        <time>2022-05-12T03:15:03.8970000+00:00</time>
      </trkpt>
      <trkpt lat="48.66776" lon="11.668666">
        <ele>431.26</ele>
        <time>2022-05-12T03:15:22.4960000+00:00</time>
      </trkpt>
      <trkpt lat="48.666676" lon="11.664941">
        <ele>425.97</ele>
        <time>2022-05-12T03:16:37.6490000+00:00</time>
      </trkpt>
      <trkpt lat="48.666471" lon="11.663656">
        <ele>418.15</ele>
        <time>2022-05-12T03:17:02.0550000+00:00</time>
      </trkpt>
      <trkpt lat="48.666286" lon="11.662196">
        <ele>404.68</ele>
        <time>2022-05-12T03:17:29.5020000+00:00</time>
      </trkpt>
      <trkpt lat="48.66614" lon="11.661824">
        <ele>400.9</ele>
        <time>2022-05-12T03:17:37.4920000+00:00</time>
      </trkpt>
      <trkpt lat="48.665985" lon="11.661766">
        <ele>400.44</ele>
        <time>2022-05-12T03:17:41.9550000+00:00</time>
      </trkpt>
      <trkpt lat="48.665238" lon="11.662617">
        <ele>401.1</ele>
        <time>2022-05-12T03:18:08.0880000+00:00</time>
      </trkpt>
      <trkpt lat="48.665016" lon="11.662638">
        <ele>401.63</ele>
        <time>2022-05-12T03:18:14.3060000+00:00</time>
      </trkpt>
      <trkpt lat="48.664811" lon="11.662973">
        <ele>402.83</ele>
        <time>2022-05-12T03:18:22.7380000+00:00</time>
      </trkpt>
      <trkpt lat="48.664777" lon="11.662932">
        <ele>402.71</ele>
        <time>2022-05-12T03:18:23.9530000+00:00</time>
      </trkpt>
      <trkpt lat="48.664811" lon="11.662973">
        <ele>402.83</ele>
        <time>2022-05-12T03:18:25.1680000+00:00</time>
      </trkpt>
      <trkpt lat="48.664656" lon="11.663226">
        <ele>403.44</ele>
        <time>2022-05-12T03:18:31.5400000+00:00</time>
      </trkpt>
      <trkpt lat="48.664402" lon="11.663971">
        <ele>403.49</ele>
        <time>2022-05-12T03:18:47.0190000+00:00</time>
      </trkpt>
      <trkpt lat="48.664292" lon="11.664556">
        <ele>404.43</ele>
        <time>2022-05-12T03:18:58.2500000+00:00</time>
      </trkpt>
      <trkpt lat="48.664101" lon="11.664609">
        <ele>404.46</ele>
        <time>2022-05-12T03:19:03.6780000+00:00</time>
      </trkpt>
      <trkpt lat="48.663725" lon="11.664279">
        <ele>404.15</ele>
        <time>2022-05-12T03:19:15.8270000+00:00</time>
      </trkpt>
      <trkpt lat="48.663562" lon="11.664339">
        <ele>404.25</ele>
        <time>2022-05-12T03:19:20.5170000+00:00</time>
      </trkpt>
      <trkpt lat="48.663388" lon="11.664661">
        <ele>404.68</ele>
        <time>2022-05-12T03:19:28.1980000+00:00</time>
      </trkpt>
      <trkpt lat="48.663183" lon="11.665564">
        <ele>405.55</ele>
        <time>2022-05-12T03:19:45.8280000+00:00</time>
      </trkpt>
      <trkpt lat="48.662933" lon="11.667233">
        <ele>406.01</ele>
        <time>2022-05-12T03:20:17.4270000+00:00</time>
      </trkpt>
      <trkpt lat="48.662532" lon="11.669147">
        <ele>417.58</ele>
        <time>2022-05-12T03:20:54.5020000+00:00</time>
      </trkpt>
      <trkpt lat="48.661883" lon="11.672069">
        <ele>418.71</ele>
        <time>2022-05-12T03:21:51.4230000+00:00</time>
      </trkpt>
      <trkpt lat="48.66155" lon="11.672956">
        <ele>415.67</ele>
        <time>2022-05-12T03:22:10.2620000+00:00</time>
      </trkpt>
      <trkpt lat="48.660832" lon="11.674329">
        <ele>414.93</ele>
        <time>2022-05-12T03:22:42.5970000+00:00</time>
      </trkpt>
      <trkpt lat="48.660502" lon="11.67536">
        <ele>416.21</ele>
        <time>2022-05-12T03:23:03.7520000+00:00</time>
      </trkpt>
      <trkpt lat="48.66039" lon="11.677142">
        <ele>414.38</ele>
        <time>2022-05-12T03:23:36.8050000+00:00</time>
      </trkpt>
      <trkpt lat="48.66022" lon="11.677887">
        <ele>416.29</ele>
        <time>2022-05-12T03:23:51.3590000+00:00</time>
      </trkpt>
      <trkpt lat="48.658942" lon="11.681093">
        <ele>417.94</ele>
        <time>2022-05-12T03:25:00.5030000+00:00</time>
      </trkpt>
      <trkpt lat="48.658882" lon="11.681189">
        <ele>417.77</ele>
        <time>2022-05-12T03:25:02.9430000+00:00</time>
      </trkpt>
      <trkpt lat="48.65881" lon="11.681231">
        <ele>417.43</ele>
        <time>2022-05-12T03:25:05.1000000+00:00</time>
      </trkpt>
      <trkpt lat="48.658556" lon="11.681092">
        <ele>416.29</ele>
        <time>2022-05-12T03:25:12.6500000+00:00</time>
      </trkpt>
      <trkpt lat="48.658478" lon="11.681092">
        <ele>416.67</ele>
        <time>2022-05-12T03:25:14.8310000+00:00</time>
      </trkpt>
      <trkpt lat="48.658311" lon="11.681164">
        <ele>417.51</ele>
        <time>2022-05-12T03:25:19.6850000+00:00</time>
      </trkpt>
      <trkpt lat="48.658271" lon="11.68121">
        <ele>417.71</ele>
        <time>2022-05-12T03:25:21.0890000+00:00</time>
      </trkpt>
      <trkpt lat="48.658079" lon="11.681615">
        <ele>418.22</ele>
        <time>2022-05-12T03:25:30.2940000+00:00</time>
      </trkpt>
      <trkpt lat="48.657752" lon="11.682076">
        <ele>417.94</ele>
        <time>2022-05-12T03:25:42.7850000+00:00</time>
      </trkpt>
      <trkpt lat="48.657449" lon="11.682809">
        <ele>417.99</ele>
        <time>2022-05-12T03:25:58.7520000+00:00</time>
      </trkpt>
      <trkpt lat="48.657224" lon="11.683038">
        <ele>419.11</ele>
        <time>2022-05-12T03:26:06.3320000+00:00</time>
      </trkpt>
      <trkpt lat="48.656855" lon="11.682453">
        <ele>420.17</ele>
        <time>2022-05-12T03:26:21.2680000+00:00</time>
      </trkpt>
      <trkpt lat="48.656698" lon="11.68224">
        <ele>421.29</ele>
        <time>2022-05-12T03:26:27.1620000+00:00</time>
      </trkpt>
      <trkpt lat="48.656387" lon="11.68276">
        <ele>421.72</ele>
        <time>2022-05-12T03:26:40.1150000+00:00</time>
      </trkpt>
      <trkpt lat="48.656698" lon="11.68224">
        <ele>421.29</ele>
        <time>2022-05-12T03:26:53.0690000+00:00</time>
      </trkpt>
      <trkpt lat="48.656272" lon="11.681601">
        <ele>424.25</ele>
        <time>2022-05-12T03:27:09.8330000+00:00</time>
      </trkpt>
      <trkpt lat="48.655102" lon="11.679748">
        <ele>430.37</ele>
        <time>2022-05-12T03:27:57.1690000+00:00</time>
      </trkpt>
      <trkpt lat="48.654416" lon="11.678785">
        <ele>432.88</ele>
        <time>2022-05-12T03:28:23.3230000+00:00</time>
      </trkpt>
      <trkpt lat="48.653668" lon="11.677153">
        <ele>442</ele>
        <time>2022-05-12T03:29:00.0050000+00:00</time>
      </trkpt>
      <trkpt lat="48.65359" lon="11.676663">
        <ele>445.06</ele>
        <time>2022-05-12T03:29:09.3130000+00:00</time>
      </trkpt>
      <trkpt lat="48.65348" lon="11.675602">
        <ele>450.98</ele>
        <time>2022-05-12T03:29:29.1460000+00:00</time>
      </trkpt>
      <trkpt lat="48.65334" lon="11.674887">
        <ele>453.72</ele>
        <time>2022-05-12T03:29:42.9180000+00:00</time>
      </trkpt>
      <trkpt lat="48.653157" lon="11.674417">
        <ele>455.62</ele>
        <time>2022-05-12T03:29:52.9930000+00:00</time>
      </trkpt>
      <trkpt lat="48.652914" lon="11.674">
        <ele>456.61</ele>
        <time>2022-05-12T03:30:03.2620000+00:00</time>
      </trkpt>
      <trkpt lat="48.652662" lon="11.673712">
        <ele>455.44</ele>
        <time>2022-05-12T03:30:12.0890000+00:00</time>
      </trkpt>
      <trkpt lat="48.651468" lon="11.673159">
        <ele>441.72</ele>
        <time>2022-05-12T03:30:46.9950000+00:00</time>
      </trkpt>
      <trkpt lat="48.651149" lon="11.672993">
        <ele>438.27</ele>
        <time>2022-05-12T03:30:56.4240000+00:00</time>
      </trkpt>
      <trkpt lat="48.650992" lon="11.672744">
        <ele>437.53</ele>
        <time>2022-05-12T03:31:02.7810000+00:00</time>
      </trkpt>
      <trkpt lat="48.650791" lon="11.672209">
        <ele>438.3</ele>
        <time>2022-05-12T03:31:14.1480000+00:00</time>
      </trkpt>
      <trkpt lat="48.650561" lon="11.671194">
        <ele>435.83</ele>
        <time>2022-05-12T03:31:33.9650000+00:00</time>
      </trkpt>
      <trkpt lat="48.650407" lon="11.670271">
        <ele>429.79</ele>
        <time>2022-05-12T03:31:51.5470000+00:00</time>
      </trkpt>
      <trkpt lat="48.650437" lon="11.669882">
        <ele>431.58</ele>
        <time>2022-05-12T03:31:58.7800000+00:00</time>
      </trkpt>
      <trkpt lat="48.650353" lon="11.669434">
        <ele>431.15</ele>
        <time>2022-05-12T03:32:07.3800000+00:00</time>
      </trkpt>
      <trkpt lat="48.650293" lon="11.669407">
        <ele>429.86</ele>
        <time>2022-05-12T03:32:09.1300000+00:00</time>
      </trkpt>
      <trkpt lat="48.649751" lon="11.668939">
        <ele>420.58</ele>
        <time>2022-05-12T03:32:26.5740000+00:00</time>
      </trkpt>
      <trkpt lat="48.649571" lon="11.668732">
        <ele>417.68</ele>
        <time>2022-05-12T03:32:32.8930000+00:00</time>
      </trkpt>
      <trkpt lat="48.648853" lon="11.668034">
        <ele>415.4</ele>
        <time>2022-05-12T03:32:56.7480000+00:00</time>
      </trkpt>
      <trkpt lat="48.648776" lon="11.668129">
        <ele>415.45</ele>
        <time>2022-05-12T03:32:59.5250000+00:00</time>
      </trkpt>
      <trkpt lat="48.648822" lon="11.668215">
        <ele>415.37</ele>
        <time>2022-05-12T03:33:01.5690000+00:00</time>
      </trkpt>
      <trkpt lat="48.648776" lon="11.668129">
        <ele>415.45</ele>
        <time>2022-05-12T03:33:03.6120000+00:00</time>
      </trkpt>
      <trkpt lat="48.648654" lon="11.668313">
        <ele>415.35</ele>
        <time>2022-05-12T03:33:08.4270000+00:00</time>
      </trkpt>
      <trkpt lat="48.648628" lon="11.668396">
        <ele>415.26</ele>
        <time>2022-05-12T03:33:10.1230000+00:00</time>
      </trkpt>
      <trkpt lat="48.648549" lon="11.668344">
        <ele>415.75</ele>
        <time>2022-05-12T03:33:12.5320000+00:00</time>
      </trkpt>
      <trkpt lat="48.648142" lon="11.667475">
        <ele>418.27</ele>
        <time>2022-05-12T03:33:32.2050000+00:00</time>
      </trkpt>
      <trkpt lat="48.647073" lon="11.665697">
        <ele>421.36</ele>
        <time>2022-05-12T03:34:16.6060000+00:00</time>
      </trkpt>
      <trkpt lat="48.646734" lon="11.664964">
        <ele>422.44</ele>
        <time>2022-05-12T03:34:33.1310000+00:00</time>
      </trkpt>
      <trkpt lat="48.646076" lon="11.663245">
        <ele>422.98</ele>
        <time>2022-05-12T03:35:09.8250000+00:00</time>
      </trkpt>
      <trkpt lat="48.645912" lon="11.662642">
        <ele>425.19</ele>
        <time>2022-05-12T03:35:21.8690000+00:00</time>
      </trkpt>
      <trkpt lat="48.645693" lon="11.660952">
        <ele>430.76</ele>
        <time>2022-05-12T03:35:53.6780000+00:00</time>
      </trkpt>
      <trkpt lat="48.645499" lon="11.660371">
        <ele>432.16</ele>
        <time>2022-05-12T03:36:05.7020000+00:00</time>
      </trkpt>
      <trkpt lat="48.64524" lon="11.65989">
        <ele>434.31</ele>
        <time>2022-05-12T03:36:17.1620000+00:00</time>
      </trkpt>
      <trkpt lat="48.644271" lon="11.658329">
        <ele>444.62</ele>
        <time>2022-05-12T03:36:56.7240000+00:00</time>
      </trkpt>
      <trkpt lat="48.644085" lon="11.657907">
        <ele>446.87</ele>
        <time>2022-05-12T03:37:06.0930000+00:00</time>
      </trkpt>
      <trkpt lat="48.643871" lon="11.657345">
        <ele>450.35</ele>
        <time>2022-05-12T03:37:18.0740000+00:00</time>
      </trkpt>
      <trkpt lat="48.643763" lon="11.656906">
        <ele>453.02</ele>
        <time>2022-05-12T03:37:26.7270000+00:00</time>
      </trkpt>
      <trkpt lat="48.643658" lon="11.656347">
        <ele>455.75</ele>
        <time>2022-05-12T03:37:37.4610000+00:00</time>
      </trkpt>
      <trkpt lat="48.64353" lon="11.655301">
        <ele>459.09</ele>
        <time>2022-05-12T03:37:57.1100000+00:00</time>
      </trkpt>
      <trkpt lat="48.643308" lon="11.65387">
        <ele>458.8</ele>
        <time>2022-05-12T03:38:24.2610000+00:00</time>
      </trkpt>
      <trkpt lat="48.643111" lon="11.652858">
        <ele>461.48</ele>
        <time>2022-05-12T03:38:43.7480000+00:00</time>
      </trkpt>
      <trkpt lat="48.642912" lon="11.651998">
        <ele>465.77</ele>
        <time>2022-05-12T03:39:00.5800000+00:00</time>
      </trkpt>
      <trkpt lat="48.642712" lon="11.651352">
        <ele>464.81</ele>
        <time>2022-05-12T03:39:13.7570000+00:00</time>
      </trkpt>
      <trkpt lat="48.642351" lon="11.650645">
        <ele>461.74</ele>
        <time>2022-05-12T03:39:30.2610000+00:00</time>
      </trkpt>
      <trkpt lat="48.641431" lon="11.649328">
        <ele>455.87</ele>
        <time>2022-05-12T03:40:05.6620000+00:00</time>
      </trkpt>
      <trkpt lat="48.64112" lon="11.648835">
        <ele>451.26</ele>
        <time>2022-05-12T03:40:18.2520000+00:00</time>
      </trkpt>
      <trkpt lat="48.640673" lon="11.64793">
        <ele>446.48</ele>
        <time>2022-05-12T03:40:39.1240000+00:00</time>
      </trkpt>
      <trkpt lat="48.64025" lon="11.647126">
        <ele>443.26</ele>
        <time>2022-05-12T03:40:58.1080000+00:00</time>
      </trkpt>
      <trkpt lat="48.640044" lon="11.646797">
        <ele>442.75</ele>
        <time>2022-05-12T03:41:06.4800000+00:00</time>
      </trkpt>
      <trkpt lat="48.639687" lon="11.646281">
        <ele>441.59</ele>
        <time>2022-05-12T03:41:20.2810000+00:00</time>
      </trkpt>
      <trkpt lat="48.639382" lon="11.645878">
        <ele>439.6</ele>
        <time>2022-05-12T03:41:31.5990000+00:00</time>
      </trkpt>
      <trkpt lat="48.639134" lon="11.645629">
        <ele>437.2</ele>
        <time>2022-05-12T03:41:39.9190000+00:00</time>
      </trkpt>
      <trkpt lat="48.638545" lon="11.645097">
        <ele>432.81</ele>
        <time>2022-05-12T03:41:59.0950000+00:00</time>
      </trkpt>
      <trkpt lat="48.638256" lon="11.644931">
        <ele>431.14</ele>
        <time>2022-05-12T03:42:07.7360000+00:00</time>
      </trkpt>
      <trkpt lat="48.63797" lon="11.644929">
        <ele>430.29</ele>
        <time>2022-05-12T03:42:15.7310000+00:00</time>
      </trkpt>
      <trkpt lat="48.637332" lon="11.645122">
        <ele>427.24</ele>
        <time>2022-05-12T03:42:33.9190000+00:00</time>
      </trkpt>
      <trkpt lat="48.637019" lon="11.645098">
        <ele>424.68</ele>
        <time>2022-05-12T03:42:42.6800000+00:00</time>
      </trkpt>
      <trkpt lat="48.636709" lon="11.644898">
        <ele>421.54</ele>
        <time>2022-05-12T03:42:52.1010000+00:00</time>
      </trkpt>
      <trkpt lat="48.63649" lon="11.644613">
        <ele>418.62</ele>
        <time>2022-05-12T03:43:00.1760000+00:00</time>
      </trkpt>
      <trkpt lat="48.636395" lon="11.644388">
        <ele>417.22</ele>
        <time>2022-05-12T03:43:05.1080000+00:00</time>
      </trkpt>
      <trkpt lat="48.636289" lon="11.643978">
        <ele>416.23</ele>
        <time>2022-05-12T03:43:13.2410000+00:00</time>
      </trkpt>
      <trkpt lat="48.636077" lon="11.642848">
        <ele>410.01</ele>
        <time>2022-05-12T03:43:34.9420000+00:00</time>
      </trkpt>
      <trkpt lat="48.63596" lon="11.642541">
        <ele>408.57</ele>
        <time>2022-05-12T03:43:41.4880000+00:00</time>
      </trkpt>
      <trkpt lat="48.635059" lon="11.641427">
        <ele>407.23</ele>
        <time>2022-05-12T03:44:14.0140000+00:00</time>
      </trkpt>
      <trkpt lat="48.635289" lon="11.641037">
        <ele>407.26</ele>
        <time>2022-05-12T03:44:23.6710000+00:00</time>
      </trkpt>
      <trkpt lat="48.635161" lon="11.640818">
        <ele>408.1</ele>
        <time>2022-05-12T03:44:29.0720000+00:00</time>
      </trkpt>
      <trkpt lat="48.635033" lon="11.640721">
        <ele>408.64</ele>
        <time>2022-05-12T03:44:33.0740000+00:00</time>
      </trkpt>
      <trkpt lat="48.634368" lon="11.640634">
        <ele>410.45</ele>
        <time>2022-05-12T03:44:51.7330000+00:00</time>
      </trkpt>
      <trkpt lat="48.633745" lon="11.640387">
        <ele>412.53</ele>
        <time>2022-05-12T03:45:09.7370000+00:00</time>
      </trkpt>
      <trkpt lat="48.633343" lon="11.640181">
        <ele>413.4</ele>
        <time>2022-05-12T03:45:21.6020000+00:00</time>
      </trkpt>
      <trkpt lat="48.632994" lon="11.639846">
        <ele>414.65</ele>
        <time>2022-05-12T03:45:33.1560000+00:00</time>
      </trkpt>
      <trkpt lat="48.632401" lon="11.638709">
        <ele>415.41</ele>
        <time>2022-05-12T03:45:59.9150000+00:00</time>
      </trkpt>
      <trkpt lat="48.631605" lon="11.637564">
        <ele>415.01</ele>
        <time>2022-05-12T03:46:30.6180000+00:00</time>
      </trkpt>
      <trkpt lat="48.631194" lon="11.637105">
        <ele>414.91</ele>
        <time>2022-05-12T03:46:44.8980000+00:00</time>
      </trkpt>
      <trkpt lat="48.630615" lon="11.636657">
        <ele>416.09</ele>
        <time>2022-05-12T03:47:03.0770000+00:00</time>
      </trkpt>
      <trkpt lat="48.629953" lon="11.636226">
        <ele>416.14</ele>
        <time>2022-05-12T03:47:23.2240000+00:00</time>
      </trkpt>
      <trkpt lat="48.629587" lon="11.635951">
        <ele>416.82</ele>
        <time>2022-05-12T03:47:34.6470000+00:00</time>
      </trkpt>
      <trkpt lat="48.628634" lon="11.635078">
        <ele>419.3</ele>
        <time>2022-05-12T03:48:05.7910000+00:00</time>
      </trkpt>
      <trkpt lat="48.626753" lon="11.633412">
        <ele>428.82</ele>
        <time>2022-05-12T03:49:06.7210000+00:00</time>
      </trkpt>
      <trkpt lat="48.626362" lon="11.633133">
        <ele>429.69</ele>
        <time>2022-05-12T03:49:18.8070000+00:00</time>
      </trkpt>
      <trkpt lat="48.624666" lon="11.63253">
        <ele>436.58</ele>
        <time>2022-05-12T03:50:07.5100000+00:00</time>
      </trkpt>
      <trkpt lat="48.623799" lon="11.632278">
        <ele>440.99</ele>
        <time>2022-05-12T03:50:32.1900000+00:00</time>
      </trkpt>
      <trkpt lat="48.62263" lon="11.632029">
        <ele>446.49</ele>
        <time>2022-05-12T03:51:05.1910000+00:00</time>
      </trkpt>
      <trkpt lat="48.622118" lon="11.632022">
        <ele>446.02</ele>
        <time>2022-05-12T03:51:19.5050000+00:00</time>
      </trkpt>
      <trkpt lat="48.62115" lon="11.632108">
        <ele>447.03</ele>
        <time>2022-05-12T03:51:46.6120000+00:00</time>
      </trkpt>
      <trkpt lat="48.620831" lon="11.632192">
        <ele>446.44</ele>
        <time>2022-05-12T03:51:55.6640000+00:00</time>
      </trkpt>
      <trkpt lat="48.620563" lon="11.632408">
        <ele>445.63</ele>
        <time>2022-05-12T03:52:04.1520000+00:00</time>
      </trkpt>
      <trkpt lat="48.620314" lon="11.632804">
        <ele>444.99</ele>
        <time>2022-05-12T03:52:14.2520000+00:00</time>
      </trkpt>
      <trkpt lat="48.620023" lon="11.633423">
        <ele>443.46</ele>
        <time>2022-05-12T03:52:28.2890000+00:00</time>
      </trkpt>
      <trkpt lat="48.619694" lon="11.634487">
        <ele>444.66</ele>
        <time>2022-05-12T03:52:49.9960000+00:00</time>
      </trkpt>
      <trkpt lat="48.619451" lon="11.634953">
        <ele>446.63</ele>
        <time>2022-05-12T03:53:00.9640000+00:00</time>
      </trkpt>
      <trkpt lat="48.619046" lon="11.635361">
        <ele>444.84</ele>
        <time>2022-05-12T03:53:14.5670000+00:00</time>
      </trkpt>
      <trkpt lat="48.617556" lon="11.636754">
        <ele>435.64</ele>
        <time>2022-05-12T03:54:03.5320000+00:00</time>
      </trkpt>
      <trkpt lat="48.617154" lon="11.637187">
        <ele>429.31</ele>
        <time>2022-05-12T03:54:17.3280000+00:00</time>
      </trkpt>
      <trkpt lat="48.616908" lon="11.637379">
        <ele>427.41</ele>
        <time>2022-05-12T03:54:25.0670000+00:00</time>
      </trkpt>
      <trkpt lat="48.61684" lon="11.637349">
        <ele>427.72</ele>
        <time>2022-05-12T03:54:27.0470000+00:00</time>
      </trkpt>
      <trkpt lat="48.61683" lon="11.637399">
        <ele>427.87</ele>
        <time>2022-05-12T03:54:28.0120000+00:00</time>
      </trkpt>
      <trkpt lat="48.61684" lon="11.637349">
        <ele>427.72</ele>
        <time>2022-05-12T03:54:28.9770000+00:00</time>
      </trkpt>
      <trkpt lat="48.616336" lon="11.637128">
        <ele>428.34</ele>
        <time>2022-05-12T03:54:43.6470000+00:00</time>
      </trkpt>
      <trkpt lat="48.615884" lon="11.636867">
        <ele>427.12</ele>
        <time>2022-05-12T03:54:57.1720000+00:00</time>
      </trkpt>
      <trkpt lat="48.615348" lon="11.636414">
        <ele>424.35</ele>
        <time>2022-05-12T03:55:14.3360000+00:00</time>
      </trkpt>
      <trkpt lat="48.61476" lon="11.635684">
        <ele>421.8</ele>
        <time>2022-05-12T03:55:35.6010000+00:00</time>
      </trkpt>
      <trkpt lat="48.614099" lon="11.63465">
        <ele>423.03</ele>
        <time>2022-05-12T03:56:02.1840000+00:00</time>
      </trkpt>
      <trkpt lat="48.612994" lon="11.632456">
        <ele>419.53</ele>
        <time>2022-05-12T03:56:53.1590000+00:00</time>
      </trkpt>
      <trkpt lat="48.61135" lon="11.629767">
        <ele>416.88</ele>
        <time>2022-05-12T03:58:00.8500000+00:00</time>
      </trkpt>
      <trkpt lat="48.610449" lon="11.628216">
        <ele>418.69</ele>
        <time>2022-05-12T03:58:39.0100000+00:00</time>
      </trkpt>
      <trkpt lat="48.6094" lon="11.625964">
        <ele>414.46</ele>
        <time>2022-05-12T03:59:29.9270000+00:00</time>
      </trkpt>
      <trkpt lat="48.609001" lon="11.624962">
        <ele>413.6</ele>
        <time>2022-05-12T03:59:51.5470000+00:00</time>
      </trkpt>
      <trkpt lat="48.608329" lon="11.623526">
        <ele>412.79</ele>
        <time>2022-05-12T04:00:24.0650000+00:00</time>
      </trkpt>
      <trkpt lat="48.608139" lon="11.623687">
        <ele>413.31</ele>
        <time>2022-05-12T04:00:30.1530000+00:00</time>
      </trkpt>
      <trkpt lat="48.607915" lon="11.623803">
        <ele>414.12</ele>
        <time>2022-05-12T04:00:36.7720000+00:00</time>
      </trkpt>
      <trkpt lat="48.607481" lon="11.623806">
        <ele>414.05</ele>
        <time>2022-05-12T04:00:48.9050000+00:00</time>
      </trkpt>
      <trkpt lat="48.607239" lon="11.623837">
        <ele>413.91</ele>
        <time>2022-05-12T04:00:55.6940000+00:00</time>
      </trkpt>
      <trkpt lat="48.607132" lon="11.623923">
        <ele>414.11</ele>
        <time>2022-05-12T04:00:59.0810000+00:00</time>
      </trkpt>
      <trkpt lat="48.607012" lon="11.624103">
        <ele>414.65</ele>
        <time>2022-05-12T04:01:03.8060000+00:00</time>
      </trkpt>
      <trkpt lat="48.606752" lon="11.623878">
        <ele>413.17</ele>
        <time>2022-05-12T04:01:12.1800000+00:00</time>
      </trkpt>
      <trkpt lat="48.607012" lon="11.624103">
        <ele>414.65</ele>
        <time>2022-05-12T04:01:20.5540000+00:00</time>
      </trkpt>
      <trkpt lat="48.606647" lon="11.62508">
        <ele>416.19</ele>
        <time>2022-05-12T04:01:41.2970000+00:00</time>
      </trkpt>
      <trkpt lat="48.606438" lon="11.625511">
        <ele>416.95</ele>
        <time>2022-05-12T04:01:51.1760000+00:00</time>
      </trkpt>
      <trkpt lat="48.606318" lon="11.625701">
        <ele>417.43</ele>
        <time>2022-05-12T04:01:56.0330000+00:00</time>
      </trkpt>
      <trkpt lat="48.605516" lon="11.626526">
        <ele>418.47</ele>
        <time>2022-05-12T04:02:23.1480000+00:00</time>
      </trkpt>
      <trkpt lat="48.604895" lon="11.626999">
        <ele>418.53</ele>
        <time>2022-05-12T04:02:42.5850000+00:00</time>
      </trkpt>
      <trkpt lat="48.603822" lon="11.627675">
        <ele>420.49</ele>
        <time>2022-05-12T04:03:15.0790000+00:00</time>
      </trkpt>
      <trkpt lat="48.603786" lon="11.627673">
        <ele>420.52</ele>
        <time>2022-05-12T04:03:16.0860000+00:00</time>
      </trkpt>
      <trkpt lat="48.603752" lon="11.627635">
        <ele>420.47</ele>
        <time>2022-05-12T04:03:17.2680000+00:00</time>
      </trkpt>
      <trkpt lat="48.603477" lon="11.626953">
        <ele>418.24</ele>
        <time>2022-05-12T04:03:32.0340000+00:00</time>
      </trkpt>
      <trkpt lat="48.603435" lon="11.626911">
        <ele>417.94</ele>
        <time>2022-05-12T04:03:33.4420000+00:00</time>
      </trkpt>
      <trkpt lat="48.603384" lon="11.626921">
        <ele>417.79</ele>
        <time>2022-05-12T04:03:34.8800000+00:00</time>
      </trkpt>
      <trkpt lat="48.603221" lon="11.62706">
        <ele>417.71</ele>
        <time>2022-05-12T04:03:40.1110000+00:00</time>
      </trkpt>
      <trkpt lat="48.602889" lon="11.627428">
        <ele>418.3</ele>
        <time>2022-05-12T04:03:51.6180000+00:00</time>
      </trkpt>
      <trkpt lat="48.602956" lon="11.627663">
        <ele>419.5</ele>
        <time>2022-05-12T04:03:56.3490000+00:00</time>
      </trkpt>
      <trkpt lat="48.602836" lon="11.627741">
        <ele>419.67</ele>
        <time>2022-05-12T04:04:00.0000000+00:00</time>
      </trkpt>
    </trkseg>
  </trk>
</gpx>